<?xml version="1.0" encoding="UTF-8" standalone="no" ?>
<gpx xmlns="http://www.topografix.com/GPX/1/1" xmlns:xsi="http://www.w3.org/2001/XMLSchema-instance" xsi:schemaLocation="http://www.topografix.com/GPX/1/1 http://www.topografix.com/GPX/1/1/gpx.xsd" version="1.1" creator="VisuGPX - https://www.visugpx.com">
  <metadata>
    <name>Rando semi-nocture à Trizay (17)</name>
    <desc><![CDATA[Petite marche sympathique avec une météo plus que généreuse]]></desc>
  </metadata>
  <trk>
    <name><![CDATA[2011-06-25 19:04]]></name>
    <trkseg>
      <trkpt lat="45.88268" lon="-0.89604">
        <ele>14</ele>
        <time>2011-06-25T17:04:55Z</time>
      </trkpt>
      <trkpt lat="45.88268" lon="-0.89618">
        <ele>14</ele>
        <time>2011-06-25T17:05:05Z</time>
      </trkpt>
      <trkpt lat="45.88267" lon="-0.89632">
        <ele>14</ele>
        <time>2011-06-25T17:05:14Z</time>
      </trkpt>
      <trkpt lat="45.88274" lon="-0.89643">
        <ele>14</ele>
        <time>2011-06-25T17:05:26Z</time>
      </trkpt>
      <trkpt lat="45.88284" lon="-0.89643">
        <ele>14</ele>
        <time>2011-06-25T17:05:37Z</time>
      </trkpt>
      <trkpt lat="45.88293" lon="-0.89645">
        <ele>15</ele>
        <time>2011-06-25T17:06:10Z</time>
      </trkpt>
      <trkpt lat="45.88293" lon="-0.89645">
        <ele>15</ele>
        <time>2011-06-25T17:06:10Z</time>
      </trkpt>
      <trkpt lat="45.88293" lon="-0.89645">
        <ele>15</ele>
        <time>2011-06-25T17:06:11Z</time>
      </trkpt>
      <trkpt lat="45.88306" lon="-0.89641">
        <ele>15</ele>
        <time>2011-06-25T17:06:12Z</time>
      </trkpt>
      <trkpt lat="45.88317" lon="-0.89642">
        <ele>15</ele>
        <time>2011-06-25T17:06:14Z</time>
      </trkpt>
      <trkpt lat="45.88335" lon="-0.89642">
        <ele>15</ele>
        <time>2011-06-25T17:06:25Z</time>
      </trkpt>
      <trkpt lat="45.88346" lon="-0.89642">
        <ele>15</ele>
        <time>2011-06-25T17:06:31Z</time>
      </trkpt>
      <trkpt lat="45.88359" lon="-0.89639">
        <ele>15</ele>
        <time>2011-06-25T17:06:42Z</time>
      </trkpt>
      <trkpt lat="45.88368" lon="-0.89642">
        <ele>15</ele>
        <time>2011-06-25T17:06:51Z</time>
      </trkpt>
      <trkpt lat="45.88378" lon="-0.89637">
        <ele>15</ele>
        <time>2011-06-25T17:07:01Z</time>
      </trkpt>
      <trkpt lat="45.88387" lon="-0.89636">
        <ele>15</ele>
        <time>2011-06-25T17:07:07Z</time>
      </trkpt>
      <trkpt lat="45.88395" lon="-0.89639">
        <ele>15</ele>
        <time>2011-06-25T17:07:16Z</time>
      </trkpt>
      <trkpt lat="45.88402" lon="-0.89652">
        <ele>15</ele>
        <time>2011-06-25T17:07:24Z</time>
      </trkpt>
      <trkpt lat="45.88408" lon="-0.89669">
        <ele>15</ele>
        <time>2011-06-25T17:07:33Z</time>
      </trkpt>
      <trkpt lat="45.88407" lon="-0.89683">
        <ele>15</ele>
        <time>2011-06-25T17:07:43Z</time>
      </trkpt>
      <trkpt lat="45.88408" lon="-0.89697">
        <ele>14</ele>
        <time>2011-06-25T17:07:52Z</time>
      </trkpt>
      <trkpt lat="45.8841" lon="-0.89711">
        <ele>14</ele>
        <time>2011-06-25T17:07:59Z</time>
      </trkpt>
      <trkpt lat="45.88416" lon="-0.89727">
        <ele>14</ele>
        <time>2011-06-25T17:08:07Z</time>
      </trkpt>
      <trkpt lat="45.88415" lon="-0.8974">
        <ele>13</ele>
        <time>2011-06-25T17:08:15Z</time>
      </trkpt>
      <trkpt lat="45.88418" lon="-0.89756">
        <ele>13</ele>
        <time>2011-06-25T17:08:24Z</time>
      </trkpt>
      <trkpt lat="45.88417" lon="-0.89769">
        <ele>13</ele>
        <time>2011-06-25T17:08:32Z</time>
      </trkpt>
      <trkpt lat="45.88416" lon="-0.89784">
        <ele>13</ele>
        <time>2011-06-25T17:08:42Z</time>
      </trkpt>
      <trkpt lat="45.88416" lon="-0.89798">
        <ele>13</ele>
        <time>2011-06-25T17:08:50Z</time>
      </trkpt>
      <trkpt lat="45.88416" lon="-0.89813">
        <ele>13</ele>
        <time>2011-06-25T17:08:59Z</time>
      </trkpt>
      <trkpt lat="45.88416" lon="-0.89813">
        <ele>13</ele>
        <time>2011-06-25T17:08:59Z</time>
      </trkpt>
      <trkpt lat="45.88416" lon="-0.89813">
        <ele>13</ele>
        <time>2011-06-25T17:09:00Z</time>
      </trkpt>
      <trkpt lat="45.88417" lon="-0.89827">
        <ele>12</ele>
        <time>2011-06-25T17:09:07Z</time>
      </trkpt>
      <trkpt lat="45.88412" lon="-0.89842">
        <ele>12</ele>
        <time>2011-06-25T17:09:16Z</time>
      </trkpt>
      <trkpt lat="45.88406" lon="-0.89853">
        <ele>12</ele>
        <time>2011-06-25T17:09:24Z</time>
      </trkpt>
      <trkpt lat="45.88404" lon="-0.89872">
        <ele>11</ele>
        <time>2011-06-25T17:09:33Z</time>
      </trkpt>
      <trkpt lat="45.88396" lon="-0.89879">
        <ele>11</ele>
        <time>2011-06-25T17:09:40Z</time>
      </trkpt>
      <trkpt lat="45.8839" lon="-0.89894">
        <ele>11</ele>
        <time>2011-06-25T17:09:50Z</time>
      </trkpt>
      <trkpt lat="45.8839" lon="-0.89907">
        <ele>11</ele>
        <time>2011-06-25T17:09:56Z</time>
      </trkpt>
      <trkpt lat="45.8839" lon="-0.89928">
        <ele>10</ele>
        <time>2011-06-25T17:10:07Z</time>
      </trkpt>
      <trkpt lat="45.88387" lon="-0.89941">
        <ele>10</ele>
        <time>2011-06-25T17:10:14Z</time>
      </trkpt>
      <trkpt lat="45.88381" lon="-0.89955">
        <ele>10</ele>
        <time>2011-06-25T17:10:24Z</time>
      </trkpt>
      <trkpt lat="45.88382" lon="-0.89968">
        <ele>10</ele>
        <time>2011-06-25T17:10:30Z</time>
      </trkpt>
      <trkpt lat="45.88382" lon="-0.89989">
        <ele>10</ele>
        <time>2011-06-25T17:10:41Z</time>
      </trkpt>
      <trkpt lat="45.88381" lon="-0.90003">
        <ele>10</ele>
        <time>2011-06-25T17:10:48Z</time>
      </trkpt>
      <trkpt lat="45.88379" lon="-0.90018">
        <ele>10</ele>
        <time>2011-06-25T17:10:55Z</time>
      </trkpt>
      <trkpt lat="45.88379" lon="-0.90032">
        <ele>10</ele>
        <time>2011-06-25T17:11:02Z</time>
      </trkpt>
      <trkpt lat="45.88377" lon="-0.90052">
        <ele>10</ele>
        <time>2011-06-25T17:11:12Z</time>
      </trkpt>
      <trkpt lat="45.88372" lon="-0.90064">
        <ele>10</ele>
        <time>2011-06-25T17:11:20Z</time>
      </trkpt>
      <trkpt lat="45.88371" lon="-0.90078">
        <ele>10</ele>
        <time>2011-06-25T17:11:29Z</time>
      </trkpt>
      <trkpt lat="45.88368" lon="-0.90093">
        <ele>10</ele>
        <time>2011-06-25T17:11:36Z</time>
      </trkpt>
      <trkpt lat="45.88366" lon="-0.9011">
        <ele>10</ele>
        <time>2011-06-25T17:11:46Z</time>
      </trkpt>
      <trkpt lat="45.88367" lon="-0.90124">
        <ele>9</ele>
        <time>2011-06-25T17:11:54Z</time>
      </trkpt>
      <trkpt lat="45.88367" lon="-0.90142">
        <ele>9</ele>
        <time>2011-06-25T17:12:03Z</time>
      </trkpt>
      <trkpt lat="45.88363" lon="-0.90154">
        <ele>9</ele>
        <time>2011-06-25T17:12:10Z</time>
      </trkpt>
      <trkpt lat="45.8836" lon="-0.90172">
        <ele>9</ele>
        <time>2011-06-25T17:12:20Z</time>
      </trkpt>
      <trkpt lat="45.88362" lon="-0.90186">
        <ele>9</ele>
        <time>2011-06-25T17:12:27Z</time>
      </trkpt>
      <trkpt lat="45.8836" lon="-0.90205">
        <ele>9</ele>
        <time>2011-06-25T17:12:37Z</time>
      </trkpt>
      <trkpt lat="45.88357" lon="-0.90217">
        <ele>9</ele>
        <time>2011-06-25T17:12:44Z</time>
      </trkpt>
      <trkpt lat="45.88354" lon="-0.90235">
        <ele>9</ele>
        <time>2011-06-25T17:12:54Z</time>
      </trkpt>
      <trkpt lat="45.88352" lon="-0.90251">
        <ele>8</ele>
        <time>2011-06-25T17:13:02Z</time>
      </trkpt>
      <trkpt lat="45.88351" lon="-0.90266">
        <ele>8</ele>
        <time>2011-06-25T17:13:11Z</time>
      </trkpt>
      <trkpt lat="45.88348" lon="-0.90279">
        <ele>8</ele>
        <time>2011-06-25T17:13:19Z</time>
      </trkpt>
      <trkpt lat="45.88346" lon="-0.90294">
        <ele>8</ele>
        <time>2011-06-25T17:13:28Z</time>
      </trkpt>
      <trkpt lat="45.88346" lon="-0.90308">
        <ele>8</ele>
        <time>2011-06-25T17:13:34Z</time>
      </trkpt>
      <trkpt lat="45.88342" lon="-0.9033">
        <ele>7</ele>
        <time>2011-06-25T17:13:45Z</time>
      </trkpt>
      <trkpt lat="45.88342" lon="-0.90343">
        <ele>8</ele>
        <time>2011-06-25T17:13:52Z</time>
      </trkpt>
      <trkpt lat="45.88341" lon="-0.90358">
        <ele>8</ele>
        <time>2011-06-25T17:14:02Z</time>
      </trkpt>
      <trkpt lat="45.8834" lon="-0.90371">
        <ele>8</ele>
        <time>2011-06-25T17:14:09Z</time>
      </trkpt>
      <trkpt lat="45.8834" lon="-0.90389">
        <ele>8</ele>
        <time>2011-06-25T17:14:19Z</time>
      </trkpt>
      <trkpt lat="45.88344" lon="-0.90401">
        <ele>8</ele>
        <time>2011-06-25T17:14:24Z</time>
      </trkpt>
      <trkpt lat="45.88337" lon="-0.90422">
        <ele>8</ele>
        <time>2011-06-25T17:14:36Z</time>
      </trkpt>
      <trkpt lat="45.88335" lon="-0.90434">
        <ele>9</ele>
        <time>2011-06-25T17:14:44Z</time>
      </trkpt>
      <trkpt lat="45.88328" lon="-0.90444">
        <ele>8</ele>
        <time>2011-06-25T17:14:55Z</time>
      </trkpt>
      <trkpt lat="45.88324" lon="-0.90464">
        <ele>9</ele>
        <time>2011-06-25T17:15:10Z</time>
      </trkpt>
      <trkpt lat="45.88326" lon="-0.90479">
        <ele>9</ele>
        <time>2011-06-25T17:15:50Z</time>
      </trkpt>
      <trkpt lat="45.88324" lon="-0.90492">
        <ele>9</ele>
        <time>2011-06-25T17:15:52Z</time>
      </trkpt>
      <trkpt lat="45.88325" lon="-0.90508">
        <ele>10</ele>
        <time>2011-06-25T17:15:55Z</time>
      </trkpt>
      <trkpt lat="45.88333" lon="-0.90529">
        <ele>9</ele>
        <time>2011-06-25T17:16:04Z</time>
      </trkpt>
      <trkpt lat="45.88335" lon="-0.90543">
        <ele>9</ele>
        <time>2011-06-25T17:16:09Z</time>
      </trkpt>
      <trkpt lat="45.88341" lon="-0.90563">
        <ele>9</ele>
        <time>2011-06-25T17:16:21Z</time>
      </trkpt>
      <trkpt lat="45.88345" lon="-0.90576">
        <ele>9</ele>
        <time>2011-06-25T17:16:30Z</time>
      </trkpt>
      <trkpt lat="45.88348" lon="-0.9059">
        <ele>9</ele>
        <time>2011-06-25T17:16:38Z</time>
      </trkpt>
      <trkpt lat="45.88354" lon="-0.906">
        <ele>8</ele>
        <time>2011-06-25T17:16:45Z</time>
      </trkpt>
      <trkpt lat="45.88356" lon="-0.9062">
        <ele>8</ele>
        <time>2011-06-25T17:16:55Z</time>
      </trkpt>
      <trkpt lat="45.88359" lon="-0.90632">
        <ele>8</ele>
        <time>2011-06-25T17:17:05Z</time>
      </trkpt>
      <trkpt lat="45.88358" lon="-0.90646">
        <ele>8</ele>
        <time>2011-06-25T17:17:14Z</time>
      </trkpt>
      <trkpt lat="45.88362" lon="-0.90659">
        <ele>8</ele>
        <time>2011-06-25T17:17:22Z</time>
      </trkpt>
      <trkpt lat="45.88364" lon="-0.90673">
        <ele>8</ele>
        <time>2011-06-25T17:17:29Z</time>
      </trkpt>
      <trkpt lat="45.88366" lon="-0.90686">
        <ele>8</ele>
        <time>2011-06-25T17:17:36Z</time>
      </trkpt>
      <trkpt lat="45.88368" lon="-0.90699">
        <ele>8</ele>
        <time>2011-06-25T17:17:51Z</time>
      </trkpt>
      <trkpt lat="45.88372" lon="-0.90718">
        <ele>8</ele>
        <time>2011-06-25T17:18:03Z</time>
      </trkpt>
      <trkpt lat="45.8837" lon="-0.90732">
        <ele>8</ele>
        <time>2011-06-25T17:18:21Z</time>
      </trkpt>
      <trkpt lat="45.8837" lon="-0.90732">
        <ele>8</ele>
        <time>2011-06-25T17:18:21Z</time>
      </trkpt>
      <trkpt lat="45.8837" lon="-0.90732">
        <ele>8</ele>
        <time>2011-06-25T17:18:23Z</time>
      </trkpt>
      <trkpt lat="45.88371" lon="-0.90754">
        <ele>10</ele>
        <time>2011-06-25T17:18:47Z</time>
      </trkpt>
      <trkpt lat="45.8837" lon="-0.9077">
        <ele>10</ele>
        <time>2011-06-25T17:18:50Z</time>
      </trkpt>
      <trkpt lat="45.88368" lon="-0.90791">
        <ele>10</ele>
        <time>2011-06-25T17:18:55Z</time>
      </trkpt>
      <trkpt lat="45.88365" lon="-0.90805">
        <ele>10</ele>
        <time>2011-06-25T17:19:03Z</time>
      </trkpt>
      <trkpt lat="45.88363" lon="-0.90823">
        <ele>11</ele>
        <time>2011-06-25T17:19:13Z</time>
      </trkpt>
      <trkpt lat="45.88367" lon="-0.90835">
        <ele>12</ele>
        <time>2011-06-25T17:19:19Z</time>
      </trkpt>
      <trkpt lat="45.88364" lon="-0.90854">
        <ele>12</ele>
        <time>2011-06-25T17:19:31Z</time>
      </trkpt>
      <trkpt lat="45.88371" lon="-0.90867">
        <ele>12</ele>
        <time>2011-06-25T17:19:48Z</time>
      </trkpt>
      <trkpt lat="45.8838" lon="-0.90882">
        <ele>12</ele>
        <time>2011-06-25T17:20:05Z</time>
      </trkpt>
      <trkpt lat="45.8838" lon="-0.90896">
        <ele>12</ele>
        <time>2011-06-25T17:20:11Z</time>
      </trkpt>
      <trkpt lat="45.88387" lon="-0.90904">
        <ele>12</ele>
        <time>2011-06-25T17:20:22Z</time>
      </trkpt>
      <trkpt lat="45.88398" lon="-0.90913">
        <ele>12</ele>
        <time>2011-06-25T17:20:39Z</time>
      </trkpt>
      <trkpt lat="45.8841" lon="-0.90919">
        <ele>12</ele>
        <time>2011-06-25T17:20:56Z</time>
      </trkpt>
      <trkpt lat="45.88425" lon="-0.90923">
        <ele>11</ele>
        <time>2011-06-25T17:21:14Z</time>
      </trkpt>
      <trkpt lat="45.88432" lon="-0.90933">
        <ele>10</ele>
        <time>2011-06-25T17:21:21Z</time>
      </trkpt>
      <trkpt lat="45.88438" lon="-0.90947">
        <ele>9</ele>
        <time>2011-06-25T17:21:31Z</time>
      </trkpt>
      <trkpt lat="45.88446" lon="-0.90954">
        <ele>9</ele>
        <time>2011-06-25T17:21:41Z</time>
      </trkpt>
      <trkpt lat="45.88451" lon="-0.90968">
        <ele>9</ele>
        <time>2011-06-25T17:21:49Z</time>
      </trkpt>
      <trkpt lat="45.88458" lon="-0.90977">
        <ele>8</ele>
        <time>2011-06-25T17:21:57Z</time>
      </trkpt>
      <trkpt lat="45.88467" lon="-0.90979">
        <ele>8</ele>
        <time>2011-06-25T17:22:10Z</time>
      </trkpt>
      <trkpt lat="45.88475" lon="-0.90986">
        <ele>8</ele>
        <time>2011-06-25T17:22:16Z</time>
      </trkpt>
      <trkpt lat="45.88484" lon="-0.90993">
        <ele>7</ele>
        <time>2011-06-25T17:22:23Z</time>
      </trkpt>
      <trkpt lat="45.88495" lon="-0.90997">
        <ele>7</ele>
        <time>2011-06-25T17:22:28Z</time>
      </trkpt>
      <trkpt lat="45.8851" lon="-0.90995">
        <ele>6</ele>
        <time>2011-06-25T17:22:40Z</time>
      </trkpt>
      <trkpt lat="45.8852" lon="-0.90994">
        <ele>6</ele>
        <time>2011-06-25T17:22:47Z</time>
      </trkpt>
      <trkpt lat="45.88532" lon="-0.9099">
        <ele>7</ele>
        <time>2011-06-25T17:22:57Z</time>
      </trkpt>
      <trkpt lat="45.88541" lon="-0.90991">
        <ele>7</ele>
        <time>2011-06-25T17:23:05Z</time>
      </trkpt>
      <trkpt lat="45.8855" lon="-0.90991">
        <ele>6</ele>
        <time>2011-06-25T17:23:13Z</time>
      </trkpt>
      <trkpt lat="45.88561" lon="-0.90994">
        <ele>6</ele>
        <time>2011-06-25T17:24:01Z</time>
      </trkpt>
      <trkpt lat="45.8857" lon="-0.91">
        <ele>5</ele>
        <time>2011-06-25T17:24:05Z</time>
      </trkpt>
      <trkpt lat="45.88603" lon="-0.90996">
        <ele>8</ele>
        <time>2011-06-25T17:24:17Z</time>
      </trkpt>
      <trkpt lat="45.88614" lon="-0.90992">
        <ele>8</ele>
        <time>2011-06-25T17:24:43Z</time>
      </trkpt>
      <trkpt lat="45.88625" lon="-0.90989">
        <ele>9</ele>
        <time>2011-06-25T17:24:44Z</time>
      </trkpt>
      <trkpt lat="45.88641" lon="-0.90987">
        <ele>10</ele>
        <time>2011-06-25T17:24:46Z</time>
      </trkpt>
      <trkpt lat="45.88651" lon="-0.90991">
        <ele>10</ele>
        <time>2011-06-25T17:24:49Z</time>
      </trkpt>
      <trkpt lat="45.88661" lon="-0.90989">
        <ele>10</ele>
        <time>2011-06-25T17:24:58Z</time>
      </trkpt>
      <trkpt lat="45.88671" lon="-0.9099">
        <ele>11</ele>
        <time>2011-06-25T17:25:05Z</time>
      </trkpt>
      <trkpt lat="45.88681" lon="-0.90985">
        <ele>12</ele>
        <time>2011-06-25T17:25:17Z</time>
      </trkpt>
      <trkpt lat="45.88681" lon="-0.90985">
        <ele>12</ele>
        <time>2011-06-25T17:25:17Z</time>
      </trkpt>
      <trkpt lat="45.88681" lon="-0.90985">
        <ele>12</ele>
        <time>2011-06-25T17:25:18Z</time>
      </trkpt>
      <trkpt lat="45.8869" lon="-0.90991">
        <ele>12</ele>
        <time>2011-06-25T17:25:48Z</time>
      </trkpt>
      <trkpt lat="45.88706" lon="-0.90986">
        <ele>12</ele>
        <time>2011-06-25T17:25:55Z</time>
      </trkpt>
      <trkpt lat="45.88716" lon="-0.90986">
        <ele>12</ele>
        <time>2011-06-25T17:26:02Z</time>
      </trkpt>
      <trkpt lat="45.8873" lon="-0.90978">
        <ele>12</ele>
        <time>2011-06-25T17:26:17Z</time>
      </trkpt>
      <trkpt lat="45.88753" lon="-0.90971">
        <ele>13</ele>
        <time>2011-06-25T17:26:20Z</time>
      </trkpt>
      <trkpt lat="45.88763" lon="-0.9097">
        <ele>13</ele>
        <time>2011-06-25T17:26:22Z</time>
      </trkpt>
      <trkpt lat="45.88773" lon="-0.90964">
        <ele>13</ele>
        <time>2011-06-25T17:26:25Z</time>
      </trkpt>
      <trkpt lat="45.88785" lon="-0.90961">
        <ele>13</ele>
        <time>2011-06-25T17:26:30Z</time>
      </trkpt>
      <trkpt lat="45.88803" lon="-0.90955">
        <ele>13</ele>
        <time>2011-06-25T17:26:38Z</time>
      </trkpt>
      <trkpt lat="45.8881" lon="-0.90941">
        <ele>13</ele>
        <time>2011-06-25T17:26:47Z</time>
      </trkpt>
      <trkpt lat="45.88822" lon="-0.90925">
        <ele>13</ele>
        <time>2011-06-25T17:26:56Z</time>
      </trkpt>
      <trkpt lat="45.88832" lon="-0.9092">
        <ele>13</ele>
        <time>2011-06-25T17:27:03Z</time>
      </trkpt>
      <trkpt lat="45.88843" lon="-0.90925">
        <ele>13</ele>
        <time>2011-06-25T17:27:10Z</time>
      </trkpt>
      <trkpt lat="45.88851" lon="-0.90934">
        <ele>13</ele>
        <time>2011-06-25T17:27:27Z</time>
      </trkpt>
      <trkpt lat="45.88861" lon="-0.90938">
        <ele>13</ele>
        <time>2011-06-25T17:27:40Z</time>
      </trkpt>
      <trkpt lat="45.88867" lon="-0.90951">
        <ele>13</ele>
        <time>2011-06-25T17:27:44Z</time>
      </trkpt>
      <trkpt lat="45.88876" lon="-0.90954">
        <ele>13</ele>
        <time>2011-06-25T17:27:48Z</time>
      </trkpt>
      <trkpt lat="45.88888" lon="-0.90964">
        <ele>13</ele>
        <time>2011-06-25T17:27:55Z</time>
      </trkpt>
      <trkpt lat="45.88897" lon="-0.90968">
        <ele>13</ele>
        <time>2011-06-25T17:28:02Z</time>
      </trkpt>
      <trkpt lat="45.88897" lon="-0.90968">
        <ele>13</ele>
        <time>2011-06-25T17:28:02Z</time>
      </trkpt>
      <trkpt lat="45.88897" lon="-0.90968">
        <ele>13</ele>
        <time>2011-06-25T17:28:03Z</time>
      </trkpt>
      <trkpt lat="45.88914" lon="-0.90956">
        <ele>13</ele>
        <time>2011-06-25T17:28:16Z</time>
      </trkpt>
      <trkpt lat="45.88919" lon="-0.90942">
        <ele>13</ele>
        <time>2011-06-25T17:28:23Z</time>
      </trkpt>
      <trkpt lat="45.88925" lon="-0.90932">
        <ele>13</ele>
        <time>2011-06-25T17:28:27Z</time>
      </trkpt>
      <trkpt lat="45.88934" lon="-0.90924">
        <ele>13</ele>
        <time>2011-06-25T17:28:36Z</time>
      </trkpt>
      <trkpt lat="45.88939" lon="-0.90911">
        <ele>12</ele>
        <time>2011-06-25T17:28:43Z</time>
      </trkpt>
      <trkpt lat="45.88951" lon="-0.90896">
        <ele>12</ele>
        <time>2011-06-25T17:28:54Z</time>
      </trkpt>
      <trkpt lat="45.88958" lon="-0.90887">
        <ele>12</ele>
        <time>2011-06-25T17:28:59Z</time>
      </trkpt>
      <trkpt lat="45.88965" lon="-0.90867">
        <ele>13</ele>
        <time>2011-06-25T17:29:11Z</time>
      </trkpt>
      <trkpt lat="45.8897" lon="-0.90854">
        <ele>13</ele>
        <time>2011-06-25T17:29:19Z</time>
      </trkpt>
      <trkpt lat="45.88979" lon="-0.90838">
        <ele>13</ele>
        <time>2011-06-25T17:29:30Z</time>
      </trkpt>
      <trkpt lat="45.88982" lon="-0.90825">
        <ele>13</ele>
        <time>2011-06-25T17:29:37Z</time>
      </trkpt>
      <trkpt lat="45.88991" lon="-0.90813">
        <ele>13</ele>
        <time>2011-06-25T17:29:48Z</time>
      </trkpt>
      <trkpt lat="45.88999" lon="-0.90804">
        <ele>13</ele>
        <time>2011-06-25T17:29:54Z</time>
      </trkpt>
      <trkpt lat="45.89012" lon="-0.90792">
        <ele>13</ele>
        <time>2011-06-25T17:30:05Z</time>
      </trkpt>
      <trkpt lat="45.89021" lon="-0.90788">
        <ele>13</ele>
        <time>2011-06-25T17:30:12Z</time>
      </trkpt>
      <trkpt lat="45.8903" lon="-0.90788">
        <ele>13</ele>
        <time>2011-06-25T17:30:18Z</time>
      </trkpt>
      <trkpt lat="45.8904" lon="-0.90782">
        <ele>13</ele>
        <time>2011-06-25T17:30:25Z</time>
      </trkpt>
      <trkpt lat="45.89049" lon="-0.90781">
        <ele>13</ele>
        <time>2011-06-25T17:30:32Z</time>
      </trkpt>
      <trkpt lat="45.89064" lon="-0.90783">
        <ele>13</ele>
        <time>2011-06-25T17:30:44Z</time>
      </trkpt>
      <trkpt lat="45.89073" lon="-0.90779">
        <ele>13</ele>
        <time>2011-06-25T17:30:53Z</time>
      </trkpt>
      <trkpt lat="45.89091" lon="-0.90778">
        <ele>14</ele>
        <time>2011-06-25T17:31:04Z</time>
      </trkpt>
      <trkpt lat="45.891" lon="-0.9077">
        <ele>14</ele>
        <time>2011-06-25T17:31:12Z</time>
      </trkpt>
      <trkpt lat="45.89116" lon="-0.90758">
        <ele>14</ele>
        <time>2011-06-25T17:31:25Z</time>
      </trkpt>
      <trkpt lat="45.89124" lon="-0.9075">
        <ele>13</ele>
        <time>2011-06-25T17:31:34Z</time>
      </trkpt>
      <trkpt lat="45.89137" lon="-0.9074">
        <ele>14</ele>
        <time>2011-06-25T17:31:45Z</time>
      </trkpt>
      <trkpt lat="45.89145" lon="-0.9073">
        <ele>14</ele>
        <time>2011-06-25T17:31:54Z</time>
      </trkpt>
      <trkpt lat="45.89157" lon="-0.90717">
        <ele>14</ele>
        <time>2011-06-25T17:32:03Z</time>
      </trkpt>
      <trkpt lat="45.89165" lon="-0.90709">
        <ele>14</ele>
        <time>2011-06-25T17:32:11Z</time>
      </trkpt>
      <trkpt lat="45.89172" lon="-0.90699">
        <ele>16</ele>
        <time>2011-06-25T17:32:17Z</time>
      </trkpt>
      <trkpt lat="45.8918" lon="-0.90688">
        <ele>16</ele>
        <time>2011-06-25T17:32:25Z</time>
      </trkpt>
      <trkpt lat="45.89188" lon="-0.90681">
        <ele>16</ele>
        <time>2011-06-25T17:32:31Z</time>
      </trkpt>
      <trkpt lat="45.892" lon="-0.90665">
        <ele>17</ele>
        <time>2011-06-25T17:32:45Z</time>
      </trkpt>
      <trkpt lat="45.8921" lon="-0.90658">
        <ele>17</ele>
        <time>2011-06-25T17:32:52Z</time>
      </trkpt>
      <trkpt lat="45.89223" lon="-0.90655">
        <ele>18</ele>
        <time>2011-06-25T17:33:03Z</time>
      </trkpt>
      <trkpt lat="45.89233" lon="-0.90654">
        <ele>18</ele>
        <time>2011-06-25T17:33:10Z</time>
      </trkpt>
      <trkpt lat="45.89246" lon="-0.90644">
        <ele>18</ele>
        <time>2011-06-25T17:33:22Z</time>
      </trkpt>
      <trkpt lat="45.89254" lon="-0.90637">
        <ele>20</ele>
        <time>2011-06-25T17:33:32Z</time>
      </trkpt>
      <trkpt lat="45.89264" lon="-0.90628">
        <ele>20</ele>
        <time>2011-06-25T17:33:42Z</time>
      </trkpt>
      <trkpt lat="45.89271" lon="-0.90618">
        <ele>20</ele>
        <time>2011-06-25T17:33:50Z</time>
      </trkpt>
      <trkpt lat="45.8928" lon="-0.90616">
        <ele>20</ele>
        <time>2011-06-25T17:33:58Z</time>
      </trkpt>
      <trkpt lat="45.8929" lon="-0.90614">
        <ele>20</ele>
        <time>2011-06-25T17:34:05Z</time>
      </trkpt>
      <trkpt lat="45.89303" lon="-0.90609">
        <ele>21</ele>
        <time>2011-06-25T17:34:15Z</time>
      </trkpt>
      <trkpt lat="45.89311" lon="-0.90601">
        <ele>21</ele>
        <time>2011-06-25T17:34:24Z</time>
      </trkpt>
      <trkpt lat="45.89326" lon="-0.90596">
        <ele>21</ele>
        <time>2011-06-25T17:34:37Z</time>
      </trkpt>
      <trkpt lat="45.89338" lon="-0.90583">
        <ele>21</ele>
        <time>2011-06-25T17:34:57Z</time>
      </trkpt>
      <trkpt lat="45.89353" lon="-0.90552">
        <ele>21</ele>
        <time>2011-06-25T17:35:17Z</time>
      </trkpt>
      <trkpt lat="45.89356" lon="-0.9054">
        <ele>21</ele>
        <time>2011-06-25T17:35:23Z</time>
      </trkpt>
      <trkpt lat="45.89368" lon="-0.90523">
        <ele>21</ele>
        <time>2011-06-25T17:35:36Z</time>
      </trkpt>
      <trkpt lat="45.89377" lon="-0.90518">
        <ele>21</ele>
        <time>2011-06-25T17:35:41Z</time>
      </trkpt>
      <trkpt lat="45.89385" lon="-0.90508">
        <ele>21</ele>
        <time>2011-06-25T17:35:48Z</time>
      </trkpt>
      <trkpt lat="45.89395" lon="-0.90491">
        <ele>21</ele>
        <time>2011-06-25T17:36:15Z</time>
      </trkpt>
      <trkpt lat="45.89404" lon="-0.90484">
        <ele>21</ele>
        <time>2011-06-25T17:36:20Z</time>
      </trkpt>
      <trkpt lat="45.89412" lon="-0.90478">
        <ele>21</ele>
        <time>2011-06-25T17:36:28Z</time>
      </trkpt>
      <trkpt lat="45.89421" lon="-0.90476">
        <ele>23</ele>
        <time>2011-06-25T17:36:54Z</time>
      </trkpt>
      <trkpt lat="45.89424" lon="-0.90464">
        <ele>23</ele>
        <time>2011-06-25T17:49:00Z</time>
      </trkpt>
      <trkpt lat="45.89429" lon="-0.90453">
        <ele>23</ele>
        <time>2011-06-25T17:49:05Z</time>
      </trkpt>
      <trkpt lat="45.89436" lon="-0.90442">
        <ele>23</ele>
        <time>2011-06-25T17:49:13Z</time>
      </trkpt>
      <trkpt lat="45.89439" lon="-0.90429">
        <ele>23</ele>
        <time>2011-06-25T17:49:20Z</time>
      </trkpt>
      <trkpt lat="45.89443" lon="-0.90416">
        <ele>23</ele>
        <time>2011-06-25T17:49:29Z</time>
      </trkpt>
      <trkpt lat="45.89447" lon="-0.90404">
        <ele>23</ele>
        <time>2011-06-25T17:49:35Z</time>
      </trkpt>
      <trkpt lat="45.89454" lon="-0.90386">
        <ele>23</ele>
        <time>2011-06-25T17:49:46Z</time>
      </trkpt>
      <trkpt lat="45.8946" lon="-0.90374">
        <ele>23</ele>
        <time>2011-06-25T17:49:54Z</time>
      </trkpt>
      <trkpt lat="45.89464" lon="-0.90357">
        <ele>23</ele>
        <time>2011-06-25T17:50:03Z</time>
      </trkpt>
      <trkpt lat="45.89467" lon="-0.90344">
        <ele>23</ele>
        <time>2011-06-25T17:50:10Z</time>
      </trkpt>
      <trkpt lat="45.89472" lon="-0.90331">
        <ele>22</ele>
        <time>2011-06-25T17:50:20Z</time>
      </trkpt>
      <trkpt lat="45.89475" lon="-0.90317">
        <ele>22</ele>
        <time>2011-06-25T17:50:27Z</time>
      </trkpt>
      <trkpt lat="45.89488" lon="-0.90309">
        <ele>22</ele>
        <time>2011-06-25T17:50:37Z</time>
      </trkpt>
      <trkpt lat="45.89497" lon="-0.90302">
        <ele>22</ele>
        <time>2011-06-25T17:50:43Z</time>
      </trkpt>
      <trkpt lat="45.89508" lon="-0.90295">
        <ele>22</ele>
        <time>2011-06-25T17:50:54Z</time>
      </trkpt>
      <trkpt lat="45.89518" lon="-0.9029">
        <ele>22</ele>
        <time>2011-06-25T17:51:02Z</time>
      </trkpt>
      <trkpt lat="45.89527" lon="-0.90284">
        <ele>22</ele>
        <time>2011-06-25T17:51:09Z</time>
      </trkpt>
      <trkpt lat="45.89538" lon="-0.90279">
        <ele>22</ele>
        <time>2011-06-25T17:51:16Z</time>
      </trkpt>
      <trkpt lat="45.89546" lon="-0.90271">
        <ele>22</ele>
        <time>2011-06-25T17:51:24Z</time>
      </trkpt>
      <trkpt lat="45.89554" lon="-0.90266">
        <ele>22</ele>
        <time>2011-06-25T17:51:31Z</time>
      </trkpt>
      <trkpt lat="45.89563" lon="-0.9026">
        <ele>22</ele>
        <time>2011-06-25T17:51:39Z</time>
      </trkpt>
      <trkpt lat="45.89571" lon="-0.90254">
        <ele>21</ele>
        <time>2011-06-25T17:51:46Z</time>
      </trkpt>
      <trkpt lat="45.89584" lon="-0.90247">
        <ele>21</ele>
        <time>2011-06-25T17:51:56Z</time>
      </trkpt>
      <trkpt lat="45.89592" lon="-0.90241">
        <ele>22</ele>
        <time>2011-06-25T17:52:03Z</time>
      </trkpt>
      <trkpt lat="45.89601" lon="-0.90235">
        <ele>22</ele>
        <time>2011-06-25T17:52:11Z</time>
      </trkpt>
      <trkpt lat="45.89612" lon="-0.9023">
        <ele>22</ele>
        <time>2011-06-25T17:52:19Z</time>
      </trkpt>
      <trkpt lat="45.89621" lon="-0.90224">
        <ele>23</ele>
        <time>2011-06-25T17:52:26Z</time>
      </trkpt>
      <trkpt lat="45.8963" lon="-0.9022">
        <ele>23</ele>
        <time>2011-06-25T17:52:35Z</time>
      </trkpt>
      <trkpt lat="45.89639" lon="-0.90212">
        <ele>23</ele>
        <time>2011-06-25T17:52:43Z</time>
      </trkpt>
      <trkpt lat="45.89649" lon="-0.90202">
        <ele>23</ele>
        <time>2011-06-25T17:52:52Z</time>
      </trkpt>
      <trkpt lat="45.89658" lon="-0.902">
        <ele>23</ele>
        <time>2011-06-25T17:52:58Z</time>
      </trkpt>
      <trkpt lat="45.8967" lon="-0.90186">
        <ele>23</ele>
        <time>2011-06-25T17:53:10Z</time>
      </trkpt>
      <trkpt lat="45.8968" lon="-0.90182">
        <ele>23</ele>
        <time>2011-06-25T17:53:17Z</time>
      </trkpt>
      <trkpt lat="45.89692" lon="-0.90175">
        <ele>23</ele>
        <time>2011-06-25T17:53:25Z</time>
      </trkpt>
      <trkpt lat="45.89702" lon="-0.90173">
        <ele>23</ele>
        <time>2011-06-25T17:53:33Z</time>
      </trkpt>
      <trkpt lat="45.8971" lon="-0.90163">
        <ele>23</ele>
        <time>2011-06-25T17:53:43Z</time>
      </trkpt>
      <trkpt lat="45.89719" lon="-0.9016">
        <ele>23</ele>
        <time>2011-06-25T17:53:49Z</time>
      </trkpt>
      <trkpt lat="45.8973" lon="-0.90156">
        <ele>23</ele>
        <time>2011-06-25T17:53:56Z</time>
      </trkpt>
      <trkpt lat="45.89738" lon="-0.90151">
        <ele>23</ele>
        <time>2011-06-25T17:54:02Z</time>
      </trkpt>
      <trkpt lat="45.89747" lon="-0.90147">
        <ele>23</ele>
        <time>2011-06-25T17:54:10Z</time>
      </trkpt>
      <trkpt lat="45.89755" lon="-0.90143">
        <ele>22</ele>
        <time>2011-06-25T17:54:26Z</time>
      </trkpt>
      <trkpt lat="45.89755" lon="-0.90143">
        <ele>22</ele>
        <time>2011-06-25T17:54:26Z</time>
      </trkpt>
      <trkpt lat="45.89755" lon="-0.90143">
        <ele>22</ele>
        <time>2011-06-25T17:54:27Z</time>
      </trkpt>
      <trkpt lat="45.89766" lon="-0.90136">
        <ele>22</ele>
        <time>2011-06-25T17:54:35Z</time>
      </trkpt>
      <trkpt lat="45.89775" lon="-0.90131">
        <ele>22</ele>
        <time>2011-06-25T17:54:43Z</time>
      </trkpt>
      <trkpt lat="45.89785" lon="-0.90123">
        <ele>22</ele>
        <time>2011-06-25T17:54:52Z</time>
      </trkpt>
      <trkpt lat="45.89794" lon="-0.90118">
        <ele>22</ele>
        <time>2011-06-25T17:54:58Z</time>
      </trkpt>
      <trkpt lat="45.89812" lon="-0.90111">
        <ele>22</ele>
        <time>2011-06-25T17:55:09Z</time>
      </trkpt>
      <trkpt lat="45.89821" lon="-0.90107">
        <ele>22</ele>
        <time>2011-06-25T17:55:14Z</time>
      </trkpt>
      <trkpt lat="45.89829" lon="-0.90103">
        <ele>23</ele>
        <time>2011-06-25T17:55:20Z</time>
      </trkpt>
      <trkpt lat="45.89844" lon="-0.90093">
        <ele>22</ele>
        <time>2011-06-25T17:55:27Z</time>
      </trkpt>
      <trkpt lat="45.89855" lon="-0.90087">
        <ele>22</ele>
        <time>2011-06-25T17:55:31Z</time>
      </trkpt>
      <trkpt lat="45.89864" lon="-0.90084">
        <ele>22</ele>
        <time>2011-06-25T17:55:55Z</time>
      </trkpt>
      <trkpt lat="45.89872" lon="-0.90078">
        <ele>22</ele>
        <time>2011-06-25T17:56:03Z</time>
      </trkpt>
      <trkpt lat="45.89882" lon="-0.90071">
        <ele>21</ele>
        <time>2011-06-25T17:56:13Z</time>
      </trkpt>
      <trkpt lat="45.89891" lon="-0.90065">
        <ele>21</ele>
        <time>2011-06-25T17:56:21Z</time>
      </trkpt>
      <trkpt lat="45.89904" lon="-0.90059">
        <ele>21</ele>
        <time>2011-06-25T17:56:30Z</time>
      </trkpt>
      <trkpt lat="45.89913" lon="-0.90054">
        <ele>21</ele>
        <time>2011-06-25T17:56:39Z</time>
      </trkpt>
      <trkpt lat="45.89922" lon="-0.90053">
        <ele>21</ele>
        <time>2011-06-25T17:56:47Z</time>
      </trkpt>
      <trkpt lat="45.89931" lon="-0.90049">
        <ele>21</ele>
        <time>2011-06-25T17:56:53Z</time>
      </trkpt>
      <trkpt lat="45.89947" lon="-0.90039">
        <ele>20</ele>
        <time>2011-06-25T17:57:04Z</time>
      </trkpt>
      <trkpt lat="45.89956" lon="-0.90031">
        <ele>20</ele>
        <time>2011-06-25T17:57:09Z</time>
      </trkpt>
      <trkpt lat="45.89973" lon="-0.9002">
        <ele>21</ele>
        <time>2011-06-25T17:57:21Z</time>
      </trkpt>
      <trkpt lat="45.89983" lon="-0.90014">
        <ele>21</ele>
        <time>2011-06-25T17:57:31Z</time>
      </trkpt>
      <trkpt lat="45.89993" lon="-0.90007">
        <ele>21</ele>
        <time>2011-06-25T17:57:40Z</time>
      </trkpt>
      <trkpt lat="45.90008" lon="-0.9">
        <ele>21</ele>
        <time>2011-06-25T17:57:46Z</time>
      </trkpt>
      <trkpt lat="45.90017" lon="-0.89999">
        <ele>20</ele>
        <time>2011-06-25T17:57:57Z</time>
      </trkpt>
      <trkpt lat="45.9003" lon="-0.89999">
        <ele>20</ele>
        <time>2011-06-25T17:58:15Z</time>
      </trkpt>
      <trkpt lat="45.9004" lon="-0.89997">
        <ele>20</ele>
        <time>2011-06-25T17:58:23Z</time>
      </trkpt>
      <trkpt lat="45.90054" lon="-0.89992">
        <ele>20</ele>
        <time>2011-06-25T17:58:31Z</time>
      </trkpt>
      <trkpt lat="45.90063" lon="-0.89988">
        <ele>20</ele>
        <time>2011-06-25T17:58:37Z</time>
      </trkpt>
      <trkpt lat="45.9007" lon="-0.89978">
        <ele>20</ele>
        <time>2011-06-25T17:58:43Z</time>
      </trkpt>
      <trkpt lat="45.9008" lon="-0.89967">
        <ele>20</ele>
        <time>2011-06-25T17:58:55Z</time>
      </trkpt>
      <trkpt lat="45.90087" lon="-0.89956">
        <ele>19</ele>
        <time>2011-06-25T17:59:03Z</time>
      </trkpt>
      <trkpt lat="45.90097" lon="-0.89947">
        <ele>19</ele>
        <time>2011-06-25T17:59:12Z</time>
      </trkpt>
      <trkpt lat="45.90097" lon="-0.89947">
        <ele>19</ele>
        <time>2011-06-25T17:59:12Z</time>
      </trkpt>
      <trkpt lat="45.90097" lon="-0.89947">
        <ele>19</ele>
        <time>2011-06-25T17:59:13Z</time>
      </trkpt>
      <trkpt lat="45.90107" lon="-0.89945">
        <ele>19</ele>
        <time>2011-06-25T17:59:21Z</time>
      </trkpt>
      <trkpt lat="45.90116" lon="-0.8994">
        <ele>19</ele>
        <time>2011-06-25T17:59:29Z</time>
      </trkpt>
      <trkpt lat="45.90124" lon="-0.89931">
        <ele>19</ele>
        <time>2011-06-25T17:59:36Z</time>
      </trkpt>
      <trkpt lat="45.90133" lon="-0.89919">
        <ele>20</ele>
        <time>2011-06-25T17:59:46Z</time>
      </trkpt>
      <trkpt lat="45.90142" lon="-0.89912">
        <ele>20</ele>
        <time>2011-06-25T17:59:54Z</time>
      </trkpt>
      <trkpt lat="45.90155" lon="-0.89905">
        <ele>20</ele>
        <time>2011-06-25T18:00:03Z</time>
      </trkpt>
      <trkpt lat="45.90156" lon="-0.89892">
        <ele>20</ele>
        <time>2011-06-25T18:00:11Z</time>
      </trkpt>
      <trkpt lat="45.90164" lon="-0.89876">
        <ele>20</ele>
        <time>2011-06-25T18:00:20Z</time>
      </trkpt>
      <trkpt lat="45.9017" lon="-0.89866">
        <ele>20</ele>
        <time>2011-06-25T18:00:28Z</time>
      </trkpt>
      <trkpt lat="45.90177" lon="-0.89857">
        <ele>20</ele>
        <time>2011-06-25T18:00:37Z</time>
      </trkpt>
      <trkpt lat="45.90187" lon="-0.89858">
        <ele>20</ele>
        <time>2011-06-25T18:00:45Z</time>
      </trkpt>
      <trkpt lat="45.90197" lon="-0.89858">
        <ele>20</ele>
        <time>2011-06-25T18:00:54Z</time>
      </trkpt>
      <trkpt lat="45.90207" lon="-0.89862">
        <ele>20</ele>
        <time>2011-06-25T18:01:02Z</time>
      </trkpt>
      <trkpt lat="45.90215" lon="-0.89868">
        <ele>20</ele>
        <time>2011-06-25T18:01:12Z</time>
      </trkpt>
      <trkpt lat="45.90221" lon="-0.8988">
        <ele>20</ele>
        <time>2011-06-25T18:01:18Z</time>
      </trkpt>
      <trkpt lat="45.90233" lon="-0.8989">
        <ele>20</ele>
        <time>2011-06-25T18:01:28Z</time>
      </trkpt>
      <trkpt lat="45.90244" lon="-0.8989">
        <ele>20</ele>
        <time>2011-06-25T18:01:37Z</time>
      </trkpt>
      <trkpt lat="45.90246" lon="-0.89904">
        <ele>20</ele>
        <time>2011-06-25T18:01:48Z</time>
      </trkpt>
      <trkpt lat="45.90246" lon="-0.89925">
        <ele>20</ele>
        <time>2011-06-25T18:02:02Z</time>
      </trkpt>
      <trkpt lat="45.90246" lon="-0.89939">
        <ele>20</ele>
        <time>2011-06-25T18:02:08Z</time>
      </trkpt>
      <trkpt lat="45.90244" lon="-0.89955">
        <ele>20</ele>
        <time>2011-06-25T18:02:19Z</time>
      </trkpt>
      <trkpt lat="45.90246" lon="-0.89968">
        <ele>20</ele>
        <time>2011-06-25T18:02:27Z</time>
      </trkpt>
      <trkpt lat="45.90244" lon="-0.89982">
        <ele>20</ele>
        <time>2011-06-25T18:02:37Z</time>
      </trkpt>
      <trkpt lat="45.90243" lon="-0.89995">
        <ele>20</ele>
        <time>2011-06-25T18:02:42Z</time>
      </trkpt>
      <trkpt lat="45.90241" lon="-0.90014">
        <ele>19</ele>
        <time>2011-06-25T18:02:53Z</time>
      </trkpt>
      <trkpt lat="45.90241" lon="-0.90027">
        <ele>19</ele>
        <time>2011-06-25T18:02:59Z</time>
      </trkpt>
      <trkpt lat="45.90242" lon="-0.90043">
        <ele>19</ele>
        <time>2011-06-25T18:03:10Z</time>
      </trkpt>
      <trkpt lat="45.90239" lon="-0.90057">
        <ele>19</ele>
        <time>2011-06-25T18:03:17Z</time>
      </trkpt>
      <trkpt lat="45.90239" lon="-0.90073">
        <ele>19</ele>
        <time>2011-06-25T18:03:27Z</time>
      </trkpt>
      <trkpt lat="45.90239" lon="-0.90086">
        <ele>19</ele>
        <time>2011-06-25T18:03:36Z</time>
      </trkpt>
      <trkpt lat="45.90234" lon="-0.90103">
        <ele>18</ele>
        <time>2011-06-25T18:03:44Z</time>
      </trkpt>
      <trkpt lat="45.90237" lon="-0.90115">
        <ele>18</ele>
        <time>2011-06-25T18:03:53Z</time>
      </trkpt>
      <trkpt lat="45.90234" lon="-0.90129">
        <ele>18</ele>
        <time>2011-06-25T18:04:00Z</time>
      </trkpt>
      <trkpt lat="45.90231" lon="-0.90148">
        <ele>18</ele>
        <time>2011-06-25T18:04:12Z</time>
      </trkpt>
      <trkpt lat="45.9023" lon="-0.90162">
        <ele>18</ele>
        <time>2011-06-25T18:04:20Z</time>
      </trkpt>
      <trkpt lat="45.9023" lon="-0.90176">
        <ele>18</ele>
        <time>2011-06-25T18:04:29Z</time>
      </trkpt>
      <trkpt lat="45.90228" lon="-0.9019">
        <ele>18</ele>
        <time>2011-06-25T18:04:38Z</time>
      </trkpt>
      <trkpt lat="45.90229" lon="-0.90203">
        <ele>18</ele>
        <time>2011-06-25T18:04:46Z</time>
      </trkpt>
      <trkpt lat="45.90224" lon="-0.90215">
        <ele>18</ele>
        <time>2011-06-25T18:04:53Z</time>
      </trkpt>
      <trkpt lat="45.90223" lon="-0.90233">
        <ele>18</ele>
        <time>2011-06-25T18:05:03Z</time>
      </trkpt>
      <trkpt lat="45.90222" lon="-0.90248">
        <ele>18</ele>
        <time>2011-06-25T18:05:11Z</time>
      </trkpt>
      <trkpt lat="45.9022" lon="-0.90262">
        <ele>18</ele>
        <time>2011-06-25T18:05:20Z</time>
      </trkpt>
      <trkpt lat="45.90217" lon="-0.90274">
        <ele>18</ele>
        <time>2011-06-25T18:05:26Z</time>
      </trkpt>
      <trkpt lat="45.90217" lon="-0.9029">
        <ele>18</ele>
        <time>2011-06-25T18:05:37Z</time>
      </trkpt>
      <trkpt lat="45.90213" lon="-0.90304">
        <ele>18</ele>
        <time>2011-06-25T18:05:45Z</time>
      </trkpt>
      <trkpt lat="45.9021" lon="-0.9032">
        <ele>18</ele>
        <time>2011-06-25T18:05:54Z</time>
      </trkpt>
      <trkpt lat="45.90208" lon="-0.90335">
        <ele>18</ele>
        <time>2011-06-25T18:06:00Z</time>
      </trkpt>
      <trkpt lat="45.90207" lon="-0.9035">
        <ele>18</ele>
        <time>2011-06-25T18:06:11Z</time>
      </trkpt>
      <trkpt lat="45.90208" lon="-0.90365">
        <ele>18</ele>
        <time>2011-06-25T18:06:19Z</time>
      </trkpt>
      <trkpt lat="45.90205" lon="-0.90383">
        <ele>17</ele>
        <time>2011-06-25T18:06:28Z</time>
      </trkpt>
      <trkpt lat="45.90202" lon="-0.90396">
        <ele>17</ele>
        <time>2011-06-25T18:06:37Z</time>
      </trkpt>
      <trkpt lat="45.902" lon="-0.9041">
        <ele>17</ele>
        <time>2011-06-25T18:06:46Z</time>
      </trkpt>
      <trkpt lat="45.902" lon="-0.90425">
        <ele>17</ele>
        <time>2011-06-25T18:06:53Z</time>
      </trkpt>
      <trkpt lat="45.90196" lon="-0.90441">
        <ele>17</ele>
        <time>2011-06-25T18:07:02Z</time>
      </trkpt>
      <trkpt lat="45.90195" lon="-0.90456">
        <ele>17</ele>
        <time>2011-06-25T18:07:11Z</time>
      </trkpt>
      <trkpt lat="45.90195" lon="-0.90469">
        <ele>17</ele>
        <time>2011-06-25T18:07:20Z</time>
      </trkpt>
      <trkpt lat="45.90192" lon="-0.90481">
        <ele>17</ele>
        <time>2011-06-25T18:07:26Z</time>
      </trkpt>
      <trkpt lat="45.90188" lon="-0.90497">
        <ele>17</ele>
        <time>2011-06-25T18:07:36Z</time>
      </trkpt>
      <trkpt lat="45.90187" lon="-0.9051">
        <ele>17</ele>
        <time>2011-06-25T18:07:42Z</time>
      </trkpt>
      <trkpt lat="45.90185" lon="-0.90529">
        <ele>17</ele>
        <time>2011-06-25T18:07:53Z</time>
      </trkpt>
      <trkpt lat="45.90185" lon="-0.90543">
        <ele>17</ele>
        <time>2011-06-25T18:08:01Z</time>
      </trkpt>
      <trkpt lat="45.90183" lon="-0.90558">
        <ele>17</ele>
        <time>2011-06-25T18:08:10Z</time>
      </trkpt>
      <trkpt lat="45.90182" lon="-0.90572">
        <ele>17</ele>
        <time>2011-06-25T18:08:18Z</time>
      </trkpt>
      <trkpt lat="45.90178" lon="-0.90588">
        <ele>17</ele>
        <time>2011-06-25T18:08:27Z</time>
      </trkpt>
      <trkpt lat="45.90175" lon="-0.906">
        <ele>17</ele>
        <time>2011-06-25T18:08:34Z</time>
      </trkpt>
      <trkpt lat="45.90175" lon="-0.90619">
        <ele>17</ele>
        <time>2011-06-25T18:08:44Z</time>
      </trkpt>
      <trkpt lat="45.90174" lon="-0.90633">
        <ele>17</ele>
        <time>2011-06-25T18:08:53Z</time>
      </trkpt>
      <trkpt lat="45.9017" lon="-0.90646">
        <ele>17</ele>
        <time>2011-06-25T18:09:00Z</time>
      </trkpt>
      <trkpt lat="45.90172" lon="-0.90667">
        <ele>17</ele>
        <time>2011-06-25T18:09:12Z</time>
      </trkpt>
      <trkpt lat="45.90169" lon="-0.90681">
        <ele>17</ele>
        <time>2011-06-25T18:09:21Z</time>
      </trkpt>
      <trkpt lat="45.90167" lon="-0.90695">
        <ele>17</ele>
        <time>2011-06-25T18:09:29Z</time>
      </trkpt>
      <trkpt lat="45.90166" lon="-0.9071">
        <ele>16</ele>
        <time>2011-06-25T18:09:35Z</time>
      </trkpt>
      <trkpt lat="45.90162" lon="-0.9073">
        <ele>16</ele>
        <time>2011-06-25T18:09:46Z</time>
      </trkpt>
      <trkpt lat="45.90161" lon="-0.90743">
        <ele>16</ele>
        <time>2011-06-25T18:09:53Z</time>
      </trkpt>
      <trkpt lat="45.90158" lon="-0.90758">
        <ele>16</ele>
        <time>2011-06-25T18:10:00Z</time>
      </trkpt>
      <trkpt lat="45.90155" lon="-0.90771">
        <ele>16</ele>
        <time>2011-06-25T18:10:06Z</time>
      </trkpt>
      <trkpt lat="45.90154" lon="-0.90786">
        <ele>16</ele>
        <time>2011-06-25T18:10:15Z</time>
      </trkpt>
      <trkpt lat="45.90151" lon="-0.908">
        <ele>16</ele>
        <time>2011-06-25T18:10:22Z</time>
      </trkpt>
      <trkpt lat="45.90147" lon="-0.90814">
        <ele>16</ele>
        <time>2011-06-25T18:10:30Z</time>
      </trkpt>
      <trkpt lat="45.90147" lon="-0.90826">
        <ele>15</ele>
        <time>2011-06-25T18:10:37Z</time>
      </trkpt>
      <trkpt lat="45.90143" lon="-0.90842">
        <ele>15</ele>
        <time>2011-06-25T18:10:47Z</time>
      </trkpt>
      <trkpt lat="45.90141" lon="-0.90856">
        <ele>15</ele>
        <time>2011-06-25T18:10:54Z</time>
      </trkpt>
      <trkpt lat="45.90137" lon="-0.90874">
        <ele>15</ele>
        <time>2011-06-25T18:11:04Z</time>
      </trkpt>
      <trkpt lat="45.90138" lon="-0.90888">
        <ele>15</ele>
        <time>2011-06-25T18:11:11Z</time>
      </trkpt>
      <trkpt lat="45.90138" lon="-0.90906">
        <ele>15</ele>
        <time>2011-06-25T18:11:21Z</time>
      </trkpt>
      <trkpt lat="45.9014" lon="-0.90919">
        <ele>14</ele>
        <time>2011-06-25T18:11:29Z</time>
      </trkpt>
      <trkpt lat="45.90135" lon="-0.90935">
        <ele>14</ele>
        <time>2011-06-25T18:11:38Z</time>
      </trkpt>
      <trkpt lat="45.90132" lon="-0.9095">
        <ele>14</ele>
        <time>2011-06-25T18:11:44Z</time>
      </trkpt>
      <trkpt lat="45.90129" lon="-0.90966">
        <ele>14</ele>
        <time>2011-06-25T18:11:55Z</time>
      </trkpt>
      <trkpt lat="45.90125" lon="-0.90978">
        <ele>14</ele>
        <time>2011-06-25T18:12:00Z</time>
      </trkpt>
      <trkpt lat="45.90125" lon="-0.90998">
        <ele>14</ele>
        <time>2011-06-25T18:12:12Z</time>
      </trkpt>
      <trkpt lat="45.90125" lon="-0.91011">
        <ele>14</ele>
        <time>2011-06-25T18:12:20Z</time>
      </trkpt>
      <trkpt lat="45.90124" lon="-0.91028">
        <ele>14</ele>
        <time>2011-06-25T18:12:29Z</time>
      </trkpt>
      <trkpt lat="45.90122" lon="-0.91042">
        <ele>14</ele>
        <time>2011-06-25T18:12:36Z</time>
      </trkpt>
      <trkpt lat="45.9012" lon="-0.91057">
        <ele>14</ele>
        <time>2011-06-25T18:12:46Z</time>
      </trkpt>
      <trkpt lat="45.90119" lon="-0.9107">
        <ele>14</ele>
        <time>2011-06-25T18:12:52Z</time>
      </trkpt>
      <trkpt lat="45.90115" lon="-0.9109">
        <ele>13</ele>
        <time>2011-06-25T18:13:03Z</time>
      </trkpt>
      <trkpt lat="45.90114" lon="-0.91104">
        <ele>13</ele>
        <time>2011-06-25T18:13:10Z</time>
      </trkpt>
      <trkpt lat="45.9011" lon="-0.91122">
        <ele>13</ele>
        <time>2011-06-25T18:13:20Z</time>
      </trkpt>
      <trkpt lat="45.90106" lon="-0.91135">
        <ele>13</ele>
        <time>2011-06-25T18:13:28Z</time>
      </trkpt>
      <trkpt lat="45.90101" lon="-0.91153">
        <ele>13</ele>
        <time>2011-06-25T18:13:37Z</time>
      </trkpt>
      <trkpt lat="45.90097" lon="-0.91165">
        <ele>13</ele>
        <time>2011-06-25T18:13:45Z</time>
      </trkpt>
      <trkpt lat="45.90093" lon="-0.91181">
        <ele>13</ele>
        <time>2011-06-25T18:13:54Z</time>
      </trkpt>
      <trkpt lat="45.90089" lon="-0.91193">
        <ele>13</ele>
        <time>2011-06-25T18:14:01Z</time>
      </trkpt>
      <trkpt lat="45.90085" lon="-0.91209">
        <ele>13</ele>
        <time>2011-06-25T18:14:11Z</time>
      </trkpt>
      <trkpt lat="45.9008" lon="-0.91221">
        <ele>13</ele>
        <time>2011-06-25T18:14:18Z</time>
      </trkpt>
      <trkpt lat="45.90078" lon="-0.9124">
        <ele>12</ele>
        <time>2011-06-25T18:14:28Z</time>
      </trkpt>
      <trkpt lat="45.90073" lon="-0.91251">
        <ele>12</ele>
        <time>2011-06-25T18:14:36Z</time>
      </trkpt>
      <trkpt lat="45.90068" lon="-0.91266">
        <ele>12</ele>
        <time>2011-06-25T18:14:45Z</time>
      </trkpt>
      <trkpt lat="45.90064" lon="-0.91279">
        <ele>12</ele>
        <time>2011-06-25T18:14:51Z</time>
      </trkpt>
      <trkpt lat="45.90058" lon="-0.91295">
        <ele>12</ele>
        <time>2011-06-25T18:15:02Z</time>
      </trkpt>
      <trkpt lat="45.90057" lon="-0.9131">
        <ele>12</ele>
        <time>2011-06-25T18:15:10Z</time>
      </trkpt>
      <trkpt lat="45.90046" lon="-0.91326">
        <ele>12</ele>
        <time>2011-06-25T18:15:19Z</time>
      </trkpt>
      <trkpt lat="45.90046" lon="-0.91339">
        <ele>11</ele>
        <time>2011-06-25T18:15:28Z</time>
      </trkpt>
      <trkpt lat="45.90036" lon="-0.91348">
        <ele>11</ele>
        <time>2011-06-25T18:15:36Z</time>
      </trkpt>
      <trkpt lat="45.90036" lon="-0.91362">
        <ele>11</ele>
        <time>2011-06-25T18:15:43Z</time>
      </trkpt>
      <trkpt lat="45.90024" lon="-0.91376">
        <ele>10</ele>
        <time>2011-06-25T18:15:52Z</time>
      </trkpt>
      <trkpt lat="45.90018" lon="-0.91387">
        <ele>10</ele>
        <time>2011-06-25T18:16:00Z</time>
      </trkpt>
      <trkpt lat="45.90013" lon="-0.914">
        <ele>10</ele>
        <time>2011-06-25T18:16:10Z</time>
      </trkpt>
      <trkpt lat="45.9001" lon="-0.91413">
        <ele>10</ele>
        <time>2011-06-25T18:16:20Z</time>
      </trkpt>
      <trkpt lat="45.90015" lon="-0.91425">
        <ele>9</ele>
        <time>2011-06-25T18:16:29Z</time>
      </trkpt>
      <trkpt lat="45.90016" lon="-0.91438">
        <ele>9</ele>
        <time>2011-06-25T18:17:03Z</time>
      </trkpt>
      <trkpt lat="45.90015" lon="-0.91418">
        <ele>9</ele>
        <time>2011-06-25T18:29:30Z</time>
      </trkpt>
      <trkpt lat="45.90006" lon="-0.91413">
        <ele>9</ele>
        <time>2011-06-25T18:29:45Z</time>
      </trkpt>
      <trkpt lat="45.89999" lon="-0.91423">
        <ele>9</ele>
        <time>2011-06-25T18:29:53Z</time>
      </trkpt>
      <trkpt lat="45.89992" lon="-0.91433">
        <ele>9</ele>
        <time>2011-06-25T18:30:02Z</time>
      </trkpt>
      <trkpt lat="45.89986" lon="-0.91443">
        <ele>9</ele>
        <time>2011-06-25T18:30:11Z</time>
      </trkpt>
      <trkpt lat="45.89982" lon="-0.91456">
        <ele>9</ele>
        <time>2011-06-25T18:30:19Z</time>
      </trkpt>
      <trkpt lat="45.89974" lon="-0.91464">
        <ele>9</ele>
        <time>2011-06-25T18:30:25Z</time>
      </trkpt>
      <trkpt lat="45.89966" lon="-0.91475">
        <ele>9</ele>
        <time>2011-06-25T18:30:31Z</time>
      </trkpt>
      <trkpt lat="45.89959" lon="-0.91485">
        <ele>9</ele>
        <time>2011-06-25T18:30:38Z</time>
      </trkpt>
      <trkpt lat="45.89953" lon="-0.91495">
        <ele>9</ele>
        <time>2011-06-25T18:30:47Z</time>
      </trkpt>
      <trkpt lat="45.89946" lon="-0.91507">
        <ele>9</ele>
        <time>2011-06-25T18:30:56Z</time>
      </trkpt>
      <trkpt lat="45.89939" lon="-0.91516">
        <ele>8</ele>
        <time>2011-06-25T18:31:05Z</time>
      </trkpt>
      <trkpt lat="45.89932" lon="-0.91529">
        <ele>8</ele>
        <time>2011-06-25T18:31:13Z</time>
      </trkpt>
      <trkpt lat="45.89921" lon="-0.9155">
        <ele>8</ele>
        <time>2011-06-25T18:31:30Z</time>
      </trkpt>
      <trkpt lat="45.89916" lon="-0.91561">
        <ele>8</ele>
        <time>2011-06-25T18:31:38Z</time>
      </trkpt>
      <trkpt lat="45.89907" lon="-0.91573">
        <ele>8</ele>
        <time>2011-06-25T18:31:47Z</time>
      </trkpt>
      <trkpt lat="45.89901" lon="-0.91583">
        <ele>8</ele>
        <time>2011-06-25T18:31:54Z</time>
      </trkpt>
      <trkpt lat="45.89894" lon="-0.91596">
        <ele>9</ele>
        <time>2011-06-25T18:32:04Z</time>
      </trkpt>
      <trkpt lat="45.89889" lon="-0.91607">
        <ele>9</ele>
        <time>2011-06-25T18:32:12Z</time>
      </trkpt>
      <trkpt lat="45.89878" lon="-0.91617">
        <ele>9</ele>
        <time>2011-06-25T18:32:21Z</time>
      </trkpt>
      <trkpt lat="45.89874" lon="-0.9163">
        <ele>9</ele>
        <time>2011-06-25T18:32:30Z</time>
      </trkpt>
      <trkpt lat="45.89865" lon="-0.91641">
        <ele>9</ele>
        <time>2011-06-25T18:32:38Z</time>
      </trkpt>
      <trkpt lat="45.8986" lon="-0.91654">
        <ele>9</ele>
        <time>2011-06-25T18:32:46Z</time>
      </trkpt>
      <trkpt lat="45.89851" lon="-0.91665">
        <ele>8</ele>
        <time>2011-06-25T18:32:55Z</time>
      </trkpt>
      <trkpt lat="45.89844" lon="-0.91676">
        <ele>9</ele>
        <time>2011-06-25T18:33:03Z</time>
      </trkpt>
      <trkpt lat="45.89839" lon="-0.91687">
        <ele>9</ele>
        <time>2011-06-25T18:33:11Z</time>
      </trkpt>
      <trkpt lat="45.89832" lon="-0.91697">
        <ele>9</ele>
        <time>2011-06-25T18:33:19Z</time>
      </trkpt>
      <trkpt lat="45.89828" lon="-0.91711">
        <ele>9</ele>
        <time>2011-06-25T18:33:28Z</time>
      </trkpt>
      <trkpt lat="45.89823" lon="-0.91723">
        <ele>9</ele>
        <time>2011-06-25T18:33:36Z</time>
      </trkpt>
      <trkpt lat="45.89815" lon="-0.91731">
        <ele>9</ele>
        <time>2011-06-25T18:33:46Z</time>
      </trkpt>
      <trkpt lat="45.89807" lon="-0.91741">
        <ele>9</ele>
        <time>2011-06-25T18:33:54Z</time>
      </trkpt>
      <trkpt lat="45.898" lon="-0.91751">
        <ele>9</ele>
        <time>2011-06-25T18:34:03Z</time>
      </trkpt>
      <trkpt lat="45.89793" lon="-0.91762">
        <ele>8</ele>
        <time>2011-06-25T18:34:11Z</time>
      </trkpt>
      <trkpt lat="45.89789" lon="-0.91775">
        <ele>8</ele>
        <time>2011-06-25T18:34:20Z</time>
      </trkpt>
      <trkpt lat="45.89783" lon="-0.91785">
        <ele>8</ele>
        <time>2011-06-25T18:34:29Z</time>
      </trkpt>
      <trkpt lat="45.89777" lon="-0.91796">
        <ele>8</ele>
        <time>2011-06-25T18:34:37Z</time>
      </trkpt>
      <trkpt lat="45.89771" lon="-0.91807">
        <ele>8</ele>
        <time>2011-06-25T18:34:45Z</time>
      </trkpt>
      <trkpt lat="45.89764" lon="-0.91816">
        <ele>8</ele>
        <time>2011-06-25T18:34:54Z</time>
      </trkpt>
      <trkpt lat="45.89758" lon="-0.91827">
        <ele>7</ele>
        <time>2011-06-25T18:35:01Z</time>
      </trkpt>
      <trkpt lat="45.89748" lon="-0.91842">
        <ele>6</ele>
        <time>2011-06-25T18:35:11Z</time>
      </trkpt>
      <trkpt lat="45.89742" lon="-0.91852">
        <ele>6</ele>
        <time>2011-06-25T18:35:21Z</time>
      </trkpt>
      <trkpt lat="45.89737" lon="-0.91864">
        <ele>5</ele>
        <time>2011-06-25T18:35:30Z</time>
      </trkpt>
      <trkpt lat="45.89726" lon="-0.91884">
        <ele>5</ele>
        <time>2011-06-25T18:35:44Z</time>
      </trkpt>
      <trkpt lat="45.89722" lon="-0.91896">
        <ele>5</ele>
        <time>2011-06-25T18:35:50Z</time>
      </trkpt>
      <trkpt lat="45.89716" lon="-0.91911">
        <ele>4</ele>
        <time>2011-06-25T18:36:02Z</time>
      </trkpt>
      <trkpt lat="45.8971" lon="-0.91922">
        <ele>3</ele>
        <time>2011-06-25T18:36:10Z</time>
      </trkpt>
      <trkpt lat="45.897" lon="-0.91936">
        <ele>3</ele>
        <time>2011-06-25T18:36:19Z</time>
      </trkpt>
      <trkpt lat="45.89698" lon="-0.91949">
        <ele>3</ele>
        <time>2011-06-25T18:36:27Z</time>
      </trkpt>
      <trkpt lat="45.89692" lon="-0.9196">
        <ele>3</ele>
        <time>2011-06-25T18:36:36Z</time>
      </trkpt>
      <trkpt lat="45.89688" lon="-0.91972">
        <ele>3</ele>
        <time>2011-06-25T18:36:43Z</time>
      </trkpt>
      <trkpt lat="45.8968" lon="-0.91984">
        <ele>3</ele>
        <time>2011-06-25T18:36:53Z</time>
      </trkpt>
      <trkpt lat="45.89677" lon="-0.91996">
        <ele>4</ele>
        <time>2011-06-25T18:37:02Z</time>
      </trkpt>
      <trkpt lat="45.89673" lon="-0.92011">
        <ele>3</ele>
        <time>2011-06-25T18:37:10Z</time>
      </trkpt>
      <trkpt lat="45.89667" lon="-0.92023">
        <ele>3</ele>
        <time>2011-06-25T18:37:18Z</time>
      </trkpt>
      <trkpt lat="45.8966" lon="-0.92036">
        <ele>4</ele>
        <time>2011-06-25T18:37:27Z</time>
      </trkpt>
      <trkpt lat="45.89654" lon="-0.92048">
        <ele>4</ele>
        <time>2011-06-25T18:37:37Z</time>
      </trkpt>
      <trkpt lat="45.89648" lon="-0.92059">
        <ele>4</ele>
        <time>2011-06-25T18:37:45Z</time>
      </trkpt>
      <trkpt lat="45.89644" lon="-0.92071">
        <ele>4</ele>
        <time>2011-06-25T18:37:52Z</time>
      </trkpt>
      <trkpt lat="45.8964" lon="-0.92083">
        <ele>4</ele>
        <time>2011-06-25T18:37:59Z</time>
      </trkpt>
      <trkpt lat="45.89634" lon="-0.92104">
        <ele>3</ele>
        <time>2011-06-25T18:38:13Z</time>
      </trkpt>
      <trkpt lat="45.8963" lon="-0.92117">
        <ele>3</ele>
        <time>2011-06-25T18:38:22Z</time>
      </trkpt>
      <trkpt lat="45.89623" lon="-0.92128">
        <ele>3</ele>
        <time>2011-06-25T18:38:31Z</time>
      </trkpt>
      <trkpt lat="45.89616" lon="-0.92139">
        <ele>3</ele>
        <time>2011-06-25T18:38:37Z</time>
      </trkpt>
      <trkpt lat="45.89613" lon="-0.92153">
        <ele>3</ele>
        <time>2011-06-25T18:38:47Z</time>
      </trkpt>
      <trkpt lat="45.89608" lon="-0.92165">
        <ele>3</ele>
        <time>2011-06-25T18:38:57Z</time>
      </trkpt>
      <trkpt lat="45.89602" lon="-0.92176">
        <ele>3</ele>
        <time>2011-06-25T18:39:05Z</time>
      </trkpt>
      <trkpt lat="45.89596" lon="-0.92187">
        <ele>3</ele>
        <time>2011-06-25T18:39:13Z</time>
      </trkpt>
      <trkpt lat="45.89588" lon="-0.92198">
        <ele>3</ele>
        <time>2011-06-25T18:39:21Z</time>
      </trkpt>
      <trkpt lat="45.89587" lon="-0.92211">
        <ele>3</ele>
        <time>2011-06-25T18:39:28Z</time>
      </trkpt>
      <trkpt lat="45.89581" lon="-0.92222">
        <ele>4</ele>
        <time>2011-06-25T18:39:38Z</time>
      </trkpt>
      <trkpt lat="45.89578" lon="-0.92235">
        <ele>4</ele>
        <time>2011-06-25T18:39:45Z</time>
      </trkpt>
      <trkpt lat="45.89569" lon="-0.92248">
        <ele>4</ele>
        <time>2011-06-25T18:39:54Z</time>
      </trkpt>
      <trkpt lat="45.89565" lon="-0.92235">
        <ele>3</ele>
        <time>2011-06-25T18:40:17Z</time>
      </trkpt>
      <trkpt lat="45.89564" lon="-0.92216">
        <ele>3</ele>
        <time>2011-06-25T18:40:28Z</time>
      </trkpt>
      <trkpt lat="45.89569" lon="-0.92204">
        <ele>3</ele>
        <time>2011-06-25T18:40:36Z</time>
      </trkpt>
      <trkpt lat="45.89569" lon="-0.92186">
        <ele>4</ele>
        <time>2011-06-25T18:40:45Z</time>
      </trkpt>
      <trkpt lat="45.89573" lon="-0.92175">
        <ele>4</ele>
        <time>2011-06-25T18:40:51Z</time>
      </trkpt>
      <trkpt lat="45.89562" lon="-0.92165">
        <ele>4</ele>
        <time>2011-06-25T18:41:02Z</time>
      </trkpt>
      <trkpt lat="45.89553" lon="-0.92157">
        <ele>4</ele>
        <time>2011-06-25T18:41:10Z</time>
      </trkpt>
      <trkpt lat="45.89544" lon="-0.92151">
        <ele>4</ele>
        <time>2011-06-25T18:41:19Z</time>
      </trkpt>
      <trkpt lat="45.89535" lon="-0.92147">
        <ele>4</ele>
        <time>2011-06-25T18:41:27Z</time>
      </trkpt>
      <trkpt lat="45.89524" lon="-0.92142">
        <ele>4</ele>
        <time>2011-06-25T18:41:37Z</time>
      </trkpt>
      <trkpt lat="45.89511" lon="-0.92145">
        <ele>4</ele>
        <time>2011-06-25T18:41:54Z</time>
      </trkpt>
      <trkpt lat="45.89487" lon="-0.92139">
        <ele>4</ele>
        <time>2011-06-25T18:42:10Z</time>
      </trkpt>
      <trkpt lat="45.89477" lon="-0.92136">
        <ele>4</ele>
        <time>2011-06-25T18:42:15Z</time>
      </trkpt>
      <trkpt lat="45.89461" lon="-0.92133">
        <ele>4</ele>
        <time>2011-06-25T18:42:28Z</time>
      </trkpt>
      <trkpt lat="45.89447" lon="-0.92138">
        <ele>4</ele>
        <time>2011-06-25T18:42:41Z</time>
      </trkpt>
      <trkpt lat="45.89438" lon="-0.92135">
        <ele>4</ele>
        <time>2011-06-25T18:42:48Z</time>
      </trkpt>
      <trkpt lat="45.89429" lon="-0.92138">
        <ele>4</ele>
        <time>2011-06-25T18:42:56Z</time>
      </trkpt>
      <trkpt lat="45.8942" lon="-0.92145">
        <ele>4</ele>
        <time>2011-06-25T18:43:02Z</time>
      </trkpt>
      <trkpt lat="45.89415" lon="-0.92132">
        <ele>4</ele>
        <time>2011-06-25T18:43:15Z</time>
      </trkpt>
      <trkpt lat="45.89414" lon="-0.92117">
        <ele>4</ele>
        <time>2011-06-25T18:43:30Z</time>
      </trkpt>
      <trkpt lat="45.89412" lon="-0.92104">
        <ele>4</ele>
        <time>2011-06-25T18:43:37Z</time>
      </trkpt>
      <trkpt lat="45.89411" lon="-0.92084">
        <ele>4</ele>
        <time>2011-06-25T18:43:49Z</time>
      </trkpt>
      <trkpt lat="45.89405" lon="-0.92073">
        <ele>3</ele>
        <time>2011-06-25T18:43:58Z</time>
      </trkpt>
      <trkpt lat="45.89407" lon="-0.9206">
        <ele>3</ele>
        <time>2011-06-25T18:44:08Z</time>
      </trkpt>
      <trkpt lat="45.89402" lon="-0.92046">
        <ele>3</ele>
        <time>2011-06-25T18:44:14Z</time>
      </trkpt>
      <trkpt lat="45.89394" lon="-0.92035">
        <ele>3</ele>
        <time>2011-06-25T18:44:22Z</time>
      </trkpt>
      <trkpt lat="45.89387" lon="-0.92023">
        <ele>3</ele>
        <time>2011-06-25T18:44:29Z</time>
      </trkpt>
      <trkpt lat="45.89384" lon="-0.92006">
        <ele>2</ele>
        <time>2011-06-25T18:44:40Z</time>
      </trkpt>
      <trkpt lat="45.89385" lon="-0.91993">
        <ele>2</ele>
        <time>2011-06-25T18:44:50Z</time>
      </trkpt>
      <trkpt lat="45.89383" lon="-0.91979">
        <ele>2</ele>
        <time>2011-06-25T18:44:59Z</time>
      </trkpt>
      <trkpt lat="45.89379" lon="-0.91967">
        <ele>2</ele>
        <time>2011-06-25T18:45:08Z</time>
      </trkpt>
      <trkpt lat="45.89373" lon="-0.91957">
        <ele>3</ele>
        <time>2011-06-25T18:45:18Z</time>
      </trkpt>
      <trkpt lat="45.89364" lon="-0.91949">
        <ele>3</ele>
        <time>2011-06-25T18:45:29Z</time>
      </trkpt>
      <trkpt lat="45.89356" lon="-0.91943">
        <ele>3</ele>
        <time>2011-06-25T18:45:36Z</time>
      </trkpt>
      <trkpt lat="45.89349" lon="-0.91933">
        <ele>3</ele>
        <time>2011-06-25T18:45:42Z</time>
      </trkpt>
      <trkpt lat="45.89351" lon="-0.91915">
        <ele>4</ele>
        <time>2011-06-25T18:45:54Z</time>
      </trkpt>
      <trkpt lat="45.89358" lon="-0.91907">
        <ele>4</ele>
        <time>2011-06-25T18:46:00Z</time>
      </trkpt>
      <trkpt lat="45.89374" lon="-0.91894">
        <ele>3</ele>
        <time>2011-06-25T18:46:11Z</time>
      </trkpt>
      <trkpt lat="45.89384" lon="-0.9189">
        <ele>3</ele>
        <time>2011-06-25T18:46:18Z</time>
      </trkpt>
      <trkpt lat="45.89396" lon="-0.91878">
        <ele>3</ele>
        <time>2011-06-25T18:46:28Z</time>
      </trkpt>
      <trkpt lat="45.89407" lon="-0.9187">
        <ele>3</ele>
        <time>2011-06-25T18:46:46Z</time>
      </trkpt>
      <trkpt lat="45.89415" lon="-0.9186">
        <ele>4</ele>
        <time>2011-06-25T18:46:50Z</time>
      </trkpt>
      <trkpt lat="45.89422" lon="-0.91848">
        <ele>4</ele>
        <time>2011-06-25T18:46:54Z</time>
      </trkpt>
      <trkpt lat="45.89426" lon="-0.91837">
        <ele>4</ele>
        <time>2011-06-25T18:47:21Z</time>
      </trkpt>
      <trkpt lat="45.8943" lon="-0.91825">
        <ele>5</ele>
        <time>2011-06-25T18:47:29Z</time>
      </trkpt>
      <trkpt lat="45.89441" lon="-0.91825">
        <ele>5</ele>
        <time>2011-06-25T18:47:37Z</time>
      </trkpt>
      <trkpt lat="45.8945" lon="-0.91816">
        <ele>6</ele>
        <time>2011-06-25T18:47:47Z</time>
      </trkpt>
      <trkpt lat="45.89447" lon="-0.918">
        <ele>6</ele>
        <time>2011-06-25T18:47:52Z</time>
      </trkpt>
      <trkpt lat="45.89448" lon="-0.91785">
        <ele>6</ele>
        <time>2011-06-25T18:47:57Z</time>
      </trkpt>
      <trkpt lat="45.89447" lon="-0.91772">
        <ele>6</ele>
        <time>2011-06-25T18:48:05Z</time>
      </trkpt>
      <trkpt lat="45.89447" lon="-0.91757">
        <ele>6</ele>
        <time>2011-06-25T18:48:11Z</time>
      </trkpt>
      <trkpt lat="45.89433" lon="-0.91743">
        <ele>7</ele>
        <time>2011-06-25T18:48:30Z</time>
      </trkpt>
      <trkpt lat="45.89424" lon="-0.91742">
        <ele>7</ele>
        <time>2011-06-25T18:48:36Z</time>
      </trkpt>
      <trkpt lat="45.89408" lon="-0.91759">
        <ele>5</ele>
        <time>2011-06-25T18:48:48Z</time>
      </trkpt>
      <trkpt lat="45.89397" lon="-0.91757">
        <ele>5</ele>
        <time>2011-06-25T18:48:55Z</time>
      </trkpt>
      <trkpt lat="45.89386" lon="-0.91745">
        <ele>6</ele>
        <time>2011-06-25T18:49:07Z</time>
      </trkpt>
      <trkpt lat="45.89379" lon="-0.91736">
        <ele>6</ele>
        <time>2011-06-25T18:49:15Z</time>
      </trkpt>
      <trkpt lat="45.89373" lon="-0.9172">
        <ele>6</ele>
        <time>2011-06-25T18:49:25Z</time>
      </trkpt>
      <trkpt lat="45.89366" lon="-0.91709">
        <ele>6</ele>
        <time>2011-06-25T18:49:33Z</time>
      </trkpt>
      <trkpt lat="45.8936" lon="-0.91698">
        <ele>6</ele>
        <time>2011-06-25T18:49:41Z</time>
      </trkpt>
      <trkpt lat="45.89364" lon="-0.91684">
        <ele>6</ele>
        <time>2011-06-25T18:49:53Z</time>
      </trkpt>
      <trkpt lat="45.89369" lon="-0.91671">
        <ele>6</ele>
        <time>2011-06-25T18:49:59Z</time>
      </trkpt>
      <trkpt lat="45.89375" lon="-0.91661">
        <ele>7</ele>
        <time>2011-06-25T18:50:07Z</time>
      </trkpt>
      <trkpt lat="45.89382" lon="-0.91652">
        <ele>7</ele>
        <time>2011-06-25T18:50:15Z</time>
      </trkpt>
      <trkpt lat="45.89388" lon="-0.91642">
        <ele>7</ele>
        <time>2011-06-25T18:50:22Z</time>
      </trkpt>
      <trkpt lat="45.89398" lon="-0.91631">
        <ele>7</ele>
        <time>2011-06-25T18:50:35Z</time>
      </trkpt>
      <trkpt lat="45.89404" lon="-0.91622">
        <ele>7</ele>
        <time>2011-06-25T18:50:43Z</time>
      </trkpt>
      <trkpt lat="45.89408" lon="-0.91606">
        <ele>7</ele>
        <time>2011-06-25T18:50:52Z</time>
      </trkpt>
      <trkpt lat="45.89407" lon="-0.91593">
        <ele>7</ele>
        <time>2011-06-25T18:51:00Z</time>
      </trkpt>
      <trkpt lat="45.89402" lon="-0.9158">
        <ele>8</ele>
        <time>2011-06-25T18:51:09Z</time>
      </trkpt>
      <trkpt lat="45.89395" lon="-0.9157">
        <ele>8</ele>
        <time>2011-06-25T18:51:16Z</time>
      </trkpt>
      <trkpt lat="45.8939" lon="-0.91557">
        <ele>8</ele>
        <time>2011-06-25T18:51:26Z</time>
      </trkpt>
      <trkpt lat="45.89384" lon="-0.91546">
        <ele>8</ele>
        <time>2011-06-25T18:51:34Z</time>
      </trkpt>
      <trkpt lat="45.8938" lon="-0.91532">
        <ele>8</ele>
        <time>2011-06-25T18:51:42Z</time>
      </trkpt>
      <trkpt lat="45.89374" lon="-0.91521">
        <ele>8</ele>
        <time>2011-06-25T18:51:47Z</time>
      </trkpt>
      <trkpt lat="45.89369" lon="-0.91509">
        <ele>9</ele>
        <time>2011-06-25T18:52:00Z</time>
      </trkpt>
      <trkpt lat="45.89362" lon="-0.91493">
        <ele>9</ele>
        <time>2011-06-25T18:52:12Z</time>
      </trkpt>
      <trkpt lat="45.89356" lon="-0.91483">
        <ele>9</ele>
        <time>2011-06-25T18:52:20Z</time>
      </trkpt>
      <trkpt lat="45.89356" lon="-0.91483">
        <ele>9</ele>
        <time>2011-06-25T18:52:20Z</time>
      </trkpt>
      <trkpt lat="45.89356" lon="-0.91483">
        <ele>9</ele>
        <time>2011-06-25T18:52:21Z</time>
      </trkpt>
      <trkpt lat="45.8935" lon="-0.91471">
        <ele>9</ele>
        <time>2011-06-25T18:52:29Z</time>
      </trkpt>
      <trkpt lat="45.89343" lon="-0.91462">
        <ele>9</ele>
        <time>2011-06-25T18:52:37Z</time>
      </trkpt>
      <trkpt lat="45.89334" lon="-0.91453">
        <ele>9</ele>
        <time>2011-06-25T18:52:46Z</time>
      </trkpt>
      <trkpt lat="45.89326" lon="-0.91444">
        <ele>8</ele>
        <time>2011-06-25T18:52:53Z</time>
      </trkpt>
      <trkpt lat="45.89315" lon="-0.91451">
        <ele>8</ele>
        <time>2011-06-25T18:53:03Z</time>
      </trkpt>
      <trkpt lat="45.89306" lon="-0.91457">
        <ele>8</ele>
        <time>2011-06-25T18:53:12Z</time>
      </trkpt>
      <trkpt lat="45.89293" lon="-0.91456">
        <ele>8</ele>
        <time>2011-06-25T18:53:20Z</time>
      </trkpt>
      <trkpt lat="45.89283" lon="-0.91458">
        <ele>8</ele>
        <time>2011-06-25T18:53:28Z</time>
      </trkpt>
      <trkpt lat="45.89273" lon="-0.91464">
        <ele>8</ele>
        <time>2011-06-25T18:53:44Z</time>
      </trkpt>
      <trkpt lat="45.89259" lon="-0.91472">
        <ele>8</ele>
        <time>2011-06-25T18:53:54Z</time>
      </trkpt>
      <trkpt lat="45.89255" lon="-0.91486">
        <ele>8</ele>
        <time>2011-06-25T18:54:02Z</time>
      </trkpt>
      <trkpt lat="45.89248" lon="-0.91495">
        <ele>7</ele>
        <time>2011-06-25T18:54:12Z</time>
      </trkpt>
      <trkpt lat="45.89238" lon="-0.91511">
        <ele>7</ele>
        <time>2011-06-25T18:54:27Z</time>
      </trkpt>
      <trkpt lat="45.89233" lon="-0.91523">
        <ele>7</ele>
        <time>2011-06-25T18:54:35Z</time>
      </trkpt>
      <trkpt lat="45.89234" lon="-0.91537">
        <ele>7</ele>
        <time>2011-06-25T18:54:44Z</time>
      </trkpt>
      <trkpt lat="45.89233" lon="-0.9155">
        <ele>7</ele>
        <time>2011-06-25T18:54:52Z</time>
      </trkpt>
      <trkpt lat="45.89232" lon="-0.91563">
        <ele>7</ele>
        <time>2011-06-25T18:55:00Z</time>
      </trkpt>
      <trkpt lat="45.89226" lon="-0.91574">
        <ele>7</ele>
        <time>2011-06-25T18:55:13Z</time>
      </trkpt>
      <trkpt lat="45.89216" lon="-0.91589">
        <ele>6</ele>
        <time>2011-06-25T18:55:30Z</time>
      </trkpt>
      <trkpt lat="45.89207" lon="-0.9159">
        <ele>6</ele>
        <time>2011-06-25T18:55:37Z</time>
      </trkpt>
      <trkpt lat="45.89198" lon="-0.91589">
        <ele>6</ele>
        <time>2011-06-25T18:55:53Z</time>
      </trkpt>
      <trkpt lat="45.89196" lon="-0.91574">
        <ele>7</ele>
        <time>2011-06-25T18:56:04Z</time>
      </trkpt>
      <trkpt lat="45.89187" lon="-0.91579">
        <ele>7</ele>
        <time>2011-06-25T18:56:14Z</time>
      </trkpt>
      <trkpt lat="45.89177" lon="-0.9158">
        <ele>6</ele>
        <time>2011-06-25T18:56:22Z</time>
      </trkpt>
      <trkpt lat="45.89166" lon="-0.91581">
        <ele>6</ele>
        <time>2011-06-25T18:56:37Z</time>
      </trkpt>
      <trkpt lat="45.89159" lon="-0.91572">
        <ele>7</ele>
        <time>2011-06-25T18:56:45Z</time>
      </trkpt>
      <trkpt lat="45.89149" lon="-0.91561">
        <ele>7</ele>
        <time>2011-06-25T18:56:54Z</time>
      </trkpt>
      <trkpt lat="45.8914" lon="-0.91553">
        <ele>8</ele>
        <time>2011-06-25T18:57:04Z</time>
      </trkpt>
      <trkpt lat="45.89133" lon="-0.91545">
        <ele>8</ele>
        <time>2011-06-25T18:57:15Z</time>
      </trkpt>
      <trkpt lat="45.89123" lon="-0.91535">
        <ele>8</ele>
        <time>2011-06-25T18:57:27Z</time>
      </trkpt>
      <trkpt lat="45.89107" lon="-0.9153">
        <ele>9</ele>
        <time>2011-06-25T18:57:44Z</time>
      </trkpt>
      <trkpt lat="45.89099" lon="-0.91538">
        <ele>9</ele>
        <time>2011-06-25T18:57:54Z</time>
      </trkpt>
      <trkpt lat="45.8909" lon="-0.91544">
        <ele>8</ele>
        <time>2011-06-25T18:58:03Z</time>
      </trkpt>
      <trkpt lat="45.8908" lon="-0.91545">
        <ele>9</ele>
        <time>2011-06-25T18:58:13Z</time>
      </trkpt>
      <trkpt lat="45.89071" lon="-0.91543">
        <ele>9</ele>
        <time>2011-06-25T18:58:20Z</time>
      </trkpt>
      <trkpt lat="45.8906" lon="-0.91541">
        <ele>9</ele>
        <time>2011-06-25T18:58:30Z</time>
      </trkpt>
      <trkpt lat="45.8905" lon="-0.91541">
        <ele>9</ele>
        <time>2011-06-25T18:58:40Z</time>
      </trkpt>
      <trkpt lat="45.8904" lon="-0.91542">
        <ele>9</ele>
        <time>2011-06-25T18:59:03Z</time>
      </trkpt>
      <trkpt lat="45.8904" lon="-0.91542">
        <ele>9</ele>
        <time>2011-06-25T18:59:03Z</time>
      </trkpt>
      <trkpt lat="45.8904" lon="-0.91542">
        <ele>9</ele>
        <time>2011-06-25T18:59:04Z</time>
      </trkpt>
      <trkpt lat="45.89031" lon="-0.9154">
        <ele>9</ele>
        <time>2011-06-25T18:59:09Z</time>
      </trkpt>
      <trkpt lat="45.89021" lon="-0.91536">
        <ele>9</ele>
        <time>2011-06-25T18:59:13Z</time>
      </trkpt>
      <trkpt lat="45.89008" lon="-0.91538">
        <ele>9</ele>
        <time>2011-06-25T18:59:20Z</time>
      </trkpt>
      <trkpt lat="45.89" lon="-0.91548">
        <ele>9</ele>
        <time>2011-06-25T18:59:26Z</time>
      </trkpt>
      <trkpt lat="45.88976" lon="-0.91539">
        <ele>9</ele>
        <time>2011-06-25T18:59:55Z</time>
      </trkpt>
      <trkpt lat="45.88966" lon="-0.91542">
        <ele>9</ele>
        <time>2011-06-25T19:00:01Z</time>
      </trkpt>
      <trkpt lat="45.88948" lon="-0.91546">
        <ele>9</ele>
        <time>2011-06-25T19:00:12Z</time>
      </trkpt>
      <trkpt lat="45.88941" lon="-0.91555">
        <ele>8</ele>
        <time>2011-06-25T19:00:21Z</time>
      </trkpt>
      <trkpt lat="45.8893" lon="-0.9156">
        <ele>8</ele>
        <time>2011-06-25T19:00:29Z</time>
      </trkpt>
      <trkpt lat="45.88907" lon="-0.91555">
        <ele>8</ele>
        <time>2011-06-25T19:00:46Z</time>
      </trkpt>
      <trkpt lat="45.88897" lon="-0.91548">
        <ele>8</ele>
        <time>2011-06-25T19:01:03Z</time>
      </trkpt>
      <trkpt lat="45.88888" lon="-0.91542">
        <ele>8</ele>
        <time>2011-06-25T19:01:13Z</time>
      </trkpt>
      <trkpt lat="45.88879" lon="-0.91535">
        <ele>8</ele>
        <time>2011-06-25T19:01:30Z</time>
      </trkpt>
      <trkpt lat="45.8887" lon="-0.91531">
        <ele>8</ele>
        <time>2011-06-25T19:01:38Z</time>
      </trkpt>
      <trkpt lat="45.88857" lon="-0.91525">
        <ele>8</ele>
        <time>2011-06-25T19:01:47Z</time>
      </trkpt>
      <trkpt lat="45.88839" lon="-0.91516">
        <ele>9</ele>
        <time>2011-06-25T19:01:55Z</time>
      </trkpt>
      <trkpt lat="45.8883" lon="-0.91507">
        <ele>9</ele>
        <time>2011-06-25T19:02:00Z</time>
      </trkpt>
      <trkpt lat="45.88818" lon="-0.915">
        <ele>9</ele>
        <time>2011-06-25T19:02:12Z</time>
      </trkpt>
      <trkpt lat="45.88808" lon="-0.91494">
        <ele>10</ele>
        <time>2011-06-25T19:02:22Z</time>
      </trkpt>
      <trkpt lat="45.88794" lon="-0.91485">
        <ele>10</ele>
        <time>2011-06-25T19:02:29Z</time>
      </trkpt>
      <trkpt lat="45.88784" lon="-0.91482">
        <ele>10</ele>
        <time>2011-06-25T19:02:37Z</time>
      </trkpt>
      <trkpt lat="45.8877" lon="-0.91471">
        <ele>10</ele>
        <time>2011-06-25T19:03:03Z</time>
      </trkpt>
      <trkpt lat="45.88761" lon="-0.91466">
        <ele>10</ele>
        <time>2011-06-25T19:03:07Z</time>
      </trkpt>
      <trkpt lat="45.88752" lon="-0.91458">
        <ele>10</ele>
        <time>2011-06-25T19:03:12Z</time>
      </trkpt>
      <trkpt lat="45.88742" lon="-0.91452">
        <ele>7</ele>
        <time>2011-06-25T19:03:20Z</time>
      </trkpt>
      <trkpt lat="45.88724" lon="-0.91441">
        <ele>7</ele>
        <time>2011-06-25T19:03:37Z</time>
      </trkpt>
      <trkpt lat="45.88716" lon="-0.91432">
        <ele>7</ele>
        <time>2011-06-25T19:03:43Z</time>
      </trkpt>
      <trkpt lat="45.887" lon="-0.91425">
        <ele>6</ele>
        <time>2011-06-25T19:03:54Z</time>
      </trkpt>
      <trkpt lat="45.8869" lon="-0.91421">
        <ele>6</ele>
        <time>2011-06-25T19:04:04Z</time>
      </trkpt>
      <trkpt lat="45.88681" lon="-0.9142">
        <ele>6</ele>
        <time>2011-06-25T19:04:11Z</time>
      </trkpt>
      <trkpt lat="45.88671" lon="-0.91419">
        <ele>5</ele>
        <time>2011-06-25T19:04:21Z</time>
      </trkpt>
      <trkpt lat="45.88661" lon="-0.9142">
        <ele>5</ele>
        <time>2011-06-25T19:04:29Z</time>
      </trkpt>
      <trkpt lat="45.88652" lon="-0.91419">
        <ele>4</ele>
        <time>2011-06-25T19:04:37Z</time>
      </trkpt>
      <trkpt lat="45.88642" lon="-0.9142">
        <ele>4</ele>
        <time>2011-06-25T19:04:45Z</time>
      </trkpt>
      <trkpt lat="45.88632" lon="-0.91419">
        <ele>4</ele>
        <time>2011-06-25T19:04:54Z</time>
      </trkpt>
      <trkpt lat="45.88623" lon="-0.91422">
        <ele>4</ele>
        <time>2011-06-25T19:05:01Z</time>
      </trkpt>
      <trkpt lat="45.88608" lon="-0.91422">
        <ele>4</ele>
        <time>2011-06-25T19:05:13Z</time>
      </trkpt>
      <trkpt lat="45.88598" lon="-0.91422">
        <ele>4</ele>
        <time>2011-06-25T19:05:22Z</time>
      </trkpt>
      <trkpt lat="45.88588" lon="-0.91424">
        <ele>4</ele>
        <time>2011-06-25T19:05:32Z</time>
      </trkpt>
      <trkpt lat="45.88578" lon="-0.91421">
        <ele>4</ele>
        <time>2011-06-25T19:05:40Z</time>
      </trkpt>
      <trkpt lat="45.88569" lon="-0.91423">
        <ele>4</ele>
        <time>2011-06-25T19:05:48Z</time>
      </trkpt>
      <trkpt lat="45.8856" lon="-0.91424">
        <ele>4</ele>
        <time>2011-06-25T19:05:54Z</time>
      </trkpt>
      <trkpt lat="45.88546" lon="-0.91422">
        <ele>4</ele>
        <time>2011-06-25T19:06:04Z</time>
      </trkpt>
      <trkpt lat="45.88536" lon="-0.9142">
        <ele>4</ele>
        <time>2011-06-25T19:06:12Z</time>
      </trkpt>
      <trkpt lat="45.88527" lon="-0.91424">
        <ele>4</ele>
        <time>2011-06-25T19:06:22Z</time>
      </trkpt>
      <trkpt lat="45.88518" lon="-0.91423">
        <ele>4</ele>
        <time>2011-06-25T19:06:29Z</time>
      </trkpt>
      <trkpt lat="45.88505" lon="-0.91424">
        <ele>4</ele>
        <time>2011-06-25T19:06:38Z</time>
      </trkpt>
      <trkpt lat="45.88495" lon="-0.91424">
        <ele>4</ele>
        <time>2011-06-25T19:06:47Z</time>
      </trkpt>
      <trkpt lat="45.88485" lon="-0.91421">
        <ele>4</ele>
        <time>2011-06-25T19:06:56Z</time>
      </trkpt>
      <trkpt lat="45.88469" lon="-0.91421">
        <ele>5</ele>
        <time>2011-06-25T19:07:12Z</time>
      </trkpt>
      <trkpt lat="45.88459" lon="-0.9142">
        <ele>5</ele>
        <time>2011-06-25T19:07:20Z</time>
      </trkpt>
      <trkpt lat="45.88448" lon="-0.91422">
        <ele>5</ele>
        <time>2011-06-25T19:07:29Z</time>
      </trkpt>
      <trkpt lat="45.88439" lon="-0.91423">
        <ele>5</ele>
        <time>2011-06-25T19:07:39Z</time>
      </trkpt>
      <trkpt lat="45.8843" lon="-0.91424">
        <ele>5</ele>
        <time>2011-06-25T19:07:47Z</time>
      </trkpt>
      <trkpt lat="45.88421" lon="-0.91426">
        <ele>5</ele>
        <time>2011-06-25T19:07:55Z</time>
      </trkpt>
      <trkpt lat="45.88412" lon="-0.91425">
        <ele>6</ele>
        <time>2011-06-25T19:08:04Z</time>
      </trkpt>
      <trkpt lat="45.88401" lon="-0.91422">
        <ele>6</ele>
        <time>2011-06-25T19:08:13Z</time>
      </trkpt>
      <trkpt lat="45.88392" lon="-0.91423">
        <ele>6</ele>
        <time>2011-06-25T19:08:22Z</time>
      </trkpt>
      <trkpt lat="45.88377" lon="-0.91427">
        <ele>6</ele>
        <time>2011-06-25T19:08:37Z</time>
      </trkpt>
      <trkpt lat="45.88367" lon="-0.91425">
        <ele>6</ele>
        <time>2011-06-25T19:08:45Z</time>
      </trkpt>
      <trkpt lat="45.88356" lon="-0.91428">
        <ele>7</ele>
        <time>2011-06-25T19:08:54Z</time>
      </trkpt>
      <trkpt lat="45.88347" lon="-0.91427">
        <ele>7</ele>
        <time>2011-06-25T19:09:02Z</time>
      </trkpt>
      <trkpt lat="45.88337" lon="-0.91427">
        <ele>7</ele>
        <time>2011-06-25T19:09:13Z</time>
      </trkpt>
      <trkpt lat="45.88328" lon="-0.91426">
        <ele>8</ele>
        <time>2011-06-25T19:09:21Z</time>
      </trkpt>
      <trkpt lat="45.88319" lon="-0.91426">
        <ele>7</ele>
        <time>2011-06-25T19:09:29Z</time>
      </trkpt>
      <trkpt lat="45.8831" lon="-0.91426">
        <ele>7</ele>
        <time>2011-06-25T19:09:35Z</time>
      </trkpt>
      <trkpt lat="45.88299" lon="-0.91427">
        <ele>7</ele>
        <time>2011-06-25T19:09:45Z</time>
      </trkpt>
      <trkpt lat="45.8829" lon="-0.91428">
        <ele>7</ele>
        <time>2011-06-25T19:09:53Z</time>
      </trkpt>
      <trkpt lat="45.88281" lon="-0.91429">
        <ele>7</ele>
        <time>2011-06-25T19:10:00Z</time>
      </trkpt>
      <trkpt lat="45.88266" lon="-0.91427">
        <ele>8</ele>
        <time>2011-06-25T19:10:13Z</time>
      </trkpt>
      <trkpt lat="45.88257" lon="-0.91421">
        <ele>8</ele>
        <time>2011-06-25T19:10:21Z</time>
      </trkpt>
      <trkpt lat="45.8825" lon="-0.9141">
        <ele>9</ele>
        <time>2011-06-25T19:10:30Z</time>
      </trkpt>
      <trkpt lat="45.88238" lon="-0.91392">
        <ele>10</ele>
        <time>2011-06-25T19:10:47Z</time>
      </trkpt>
      <trkpt lat="45.8823" lon="-0.91386">
        <ele>10</ele>
        <time>2011-06-25T19:10:56Z</time>
      </trkpt>
      <trkpt lat="45.88223" lon="-0.91377">
        <ele>10</ele>
        <time>2011-06-25T19:11:04Z</time>
      </trkpt>
      <trkpt lat="45.88214" lon="-0.9137">
        <ele>10</ele>
        <time>2011-06-25T19:11:13Z</time>
      </trkpt>
      <trkpt lat="45.88206" lon="-0.91362">
        <ele>10</ele>
        <time>2011-06-25T19:11:43Z</time>
      </trkpt>
      <trkpt lat="45.88196" lon="-0.91356">
        <ele>10</ele>
        <time>2011-06-25T19:11:55Z</time>
      </trkpt>
      <trkpt lat="45.88188" lon="-0.91347">
        <ele>11</ele>
        <time>2011-06-25T19:12:12Z</time>
      </trkpt>
      <trkpt lat="45.88174" lon="-0.91347">
        <ele>11</ele>
        <time>2011-06-25T19:12:29Z</time>
      </trkpt>
      <trkpt lat="45.88165" lon="-0.91345">
        <ele>11</ele>
        <time>2011-06-25T19:12:39Z</time>
      </trkpt>
      <trkpt lat="45.88156" lon="-0.91344">
        <ele>11</ele>
        <time>2011-06-25T19:12:47Z</time>
      </trkpt>
      <trkpt lat="45.88144" lon="-0.91353">
        <ele>11</ele>
        <time>2011-06-25T19:13:03Z</time>
      </trkpt>
      <trkpt lat="45.88142" lon="-0.91366">
        <ele>10</ele>
        <time>2011-06-25T19:13:12Z</time>
      </trkpt>
      <trkpt lat="45.88139" lon="-0.9138">
        <ele>10</ele>
        <time>2011-06-25T19:14:45Z</time>
      </trkpt>
      <trkpt lat="45.8813" lon="-0.91383">
        <ele>10</ele>
        <time>2011-06-25T19:18:21Z</time>
      </trkpt>
      <trkpt lat="45.8814" lon="-0.91367">
        <ele>10</ele>
        <time>2011-06-25T19:37:47Z</time>
      </trkpt>
      <trkpt lat="45.88144" lon="-0.91353">
        <ele>11</ele>
        <time>2011-06-25T19:38:04Z</time>
      </trkpt>
      <trkpt lat="45.8815" lon="-0.91337">
        <ele>11</ele>
        <time>2011-06-25T19:38:20Z</time>
      </trkpt>
      <trkpt lat="45.88143" lon="-0.91316">
        <ele>11</ele>
        <time>2011-06-25T19:38:37Z</time>
      </trkpt>
      <trkpt lat="45.88137" lon="-0.91303">
        <ele>10</ele>
        <time>2011-06-25T19:38:47Z</time>
      </trkpt>
      <trkpt lat="45.8813" lon="-0.91293">
        <ele>10</ele>
        <time>2011-06-25T19:38:58Z</time>
      </trkpt>
      <trkpt lat="45.88122" lon="-0.91279">
        <ele>10</ele>
        <time>2011-06-25T19:39:12Z</time>
      </trkpt>
      <trkpt lat="45.88122" lon="-0.91279">
        <ele>10</ele>
        <time>2011-06-25T19:39:12Z</time>
      </trkpt>
      <trkpt lat="45.88122" lon="-0.91279">
        <ele>10</ele>
        <time>2011-06-25T19:39:13Z</time>
      </trkpt>
      <trkpt lat="45.88118" lon="-0.91268">
        <ele>10</ele>
        <time>2011-06-25T19:39:32Z</time>
      </trkpt>
      <trkpt lat="45.88108" lon="-0.9125">
        <ele>9</ele>
        <time>2011-06-25T19:39:46Z</time>
      </trkpt>
      <trkpt lat="45.881" lon="-0.91243">
        <ele>9</ele>
        <time>2011-06-25T19:39:52Z</time>
      </trkpt>
      <trkpt lat="45.88093" lon="-0.91233">
        <ele>9</ele>
        <time>2011-06-25T19:40:03Z</time>
      </trkpt>
      <trkpt lat="45.88094" lon="-0.91219">
        <ele>9</ele>
        <time>2011-06-25T19:40:37Z</time>
      </trkpt>
      <trkpt lat="45.88091" lon="-0.91205">
        <ele>9</ele>
        <time>2011-06-25T19:40:47Z</time>
      </trkpt>
      <trkpt lat="45.88094" lon="-0.91191">
        <ele>9</ele>
        <time>2011-06-25T19:40:55Z</time>
      </trkpt>
      <trkpt lat="45.88093" lon="-0.91176">
        <ele>9</ele>
        <time>2011-06-25T19:41:04Z</time>
      </trkpt>
      <trkpt lat="45.88096" lon="-0.91163">
        <ele>10</ele>
        <time>2011-06-25T19:41:15Z</time>
      </trkpt>
      <trkpt lat="45.88095" lon="-0.91144">
        <ele>10</ele>
        <time>2011-06-25T19:41:28Z</time>
      </trkpt>
      <trkpt lat="45.88098" lon="-0.91132">
        <ele>10</ele>
        <time>2011-06-25T19:41:37Z</time>
      </trkpt>
      <trkpt lat="45.88101" lon="-0.91118">
        <ele>10</ele>
        <time>2011-06-25T19:41:45Z</time>
      </trkpt>
      <trkpt lat="45.881" lon="-0.91104">
        <ele>11</ele>
        <time>2011-06-25T19:41:54Z</time>
      </trkpt>
      <trkpt lat="45.88101" lon="-0.91091">
        <ele>11</ele>
        <time>2011-06-25T19:42:02Z</time>
      </trkpt>
      <trkpt lat="45.88101" lon="-0.91076">
        <ele>12</ele>
        <time>2011-06-25T19:42:13Z</time>
      </trkpt>
      <trkpt lat="45.88104" lon="-0.91062">
        <ele>12</ele>
        <time>2011-06-25T19:42:22Z</time>
      </trkpt>
      <trkpt lat="45.88107" lon="-0.91049">
        <ele>13</ele>
        <time>2011-06-25T19:42:31Z</time>
      </trkpt>
      <trkpt lat="45.88107" lon="-0.91035">
        <ele>13</ele>
        <time>2011-06-25T19:42:40Z</time>
      </trkpt>
      <trkpt lat="45.88108" lon="-0.91021">
        <ele>14</ele>
        <time>2011-06-25T19:42:49Z</time>
      </trkpt>
      <trkpt lat="45.88109" lon="-0.91001">
        <ele>14</ele>
        <time>2011-06-25T19:43:04Z</time>
      </trkpt>
      <trkpt lat="45.88118" lon="-0.91001">
        <ele>14</ele>
        <time>2011-06-25T19:43:11Z</time>
      </trkpt>
      <trkpt lat="45.88129" lon="-0.91001">
        <ele>14</ele>
        <time>2011-06-25T19:43:25Z</time>
      </trkpt>
      <trkpt lat="45.8814" lon="-0.91001">
        <ele>14</ele>
        <time>2011-06-25T19:43:39Z</time>
      </trkpt>
      <trkpt lat="45.8815" lon="-0.91002">
        <ele>14</ele>
        <time>2011-06-25T19:43:46Z</time>
      </trkpt>
      <trkpt lat="45.8816" lon="-0.91002">
        <ele>14</ele>
        <time>2011-06-25T19:43:54Z</time>
      </trkpt>
      <trkpt lat="45.8817" lon="-0.91003">
        <ele>14</ele>
        <time>2011-06-25T19:44:03Z</time>
      </trkpt>
      <trkpt lat="45.8818" lon="-0.91005">
        <ele>14</ele>
        <time>2011-06-25T19:44:13Z</time>
      </trkpt>
      <trkpt lat="45.8818" lon="-0.91005">
        <ele>14</ele>
        <time>2011-06-25T19:44:13Z</time>
      </trkpt>
      <trkpt lat="45.8818" lon="-0.91005">
        <ele>14</ele>
        <time>2011-06-25T19:44:14Z</time>
      </trkpt>
      <trkpt lat="45.8819" lon="-0.91006">
        <ele>14</ele>
        <time>2011-06-25T19:44:20Z</time>
      </trkpt>
      <trkpt lat="45.882" lon="-0.91004">
        <ele>14</ele>
        <time>2011-06-25T19:44:32Z</time>
      </trkpt>
      <trkpt lat="45.88209" lon="-0.91006">
        <ele>14</ele>
        <time>2011-06-25T19:44:39Z</time>
      </trkpt>
      <trkpt lat="45.88209" lon="-0.91006">
        <ele>14</ele>
        <time>2011-06-25T19:44:39Z</time>
      </trkpt>
      <trkpt lat="45.88209" lon="-0.91006">
        <ele>14</ele>
        <time>2011-06-25T19:44:40Z</time>
      </trkpt>
      <trkpt lat="45.88218" lon="-0.91006">
        <ele>14</ele>
        <time>2011-06-25T19:44:55Z</time>
      </trkpt>
      <trkpt lat="45.88228" lon="-0.91004">
        <ele>14</ele>
        <time>2011-06-25T19:45:03Z</time>
      </trkpt>
      <trkpt lat="45.88228" lon="-0.91004">
        <ele>14</ele>
        <time>2011-06-25T19:45:03Z</time>
      </trkpt>
      <trkpt lat="45.88228" lon="-0.91004">
        <ele>14</ele>
        <time>2011-06-25T19:45:04Z</time>
      </trkpt>
      <trkpt lat="45.88238" lon="-0.91005">
        <ele>15</ele>
        <time>2011-06-25T19:45:18Z</time>
      </trkpt>
      <trkpt lat="45.88247" lon="-0.91005">
        <ele>15</ele>
        <time>2011-06-25T19:45:30Z</time>
      </trkpt>
      <trkpt lat="45.88258" lon="-0.91005">
        <ele>14</ele>
        <time>2011-06-25T19:45:35Z</time>
      </trkpt>
      <trkpt lat="45.88258" lon="-0.91005">
        <ele>14</ele>
        <time>2011-06-25T19:45:35Z</time>
      </trkpt>
      <trkpt lat="45.88258" lon="-0.91005">
        <ele>14</ele>
        <time>2011-06-25T19:45:37Z</time>
      </trkpt>
      <trkpt lat="45.8827" lon="-0.91008">
        <ele>14</ele>
        <time>2011-06-25T19:45:45Z</time>
      </trkpt>
      <trkpt lat="45.88279" lon="-0.91007">
        <ele>14</ele>
        <time>2011-06-25T19:45:50Z</time>
      </trkpt>
      <trkpt lat="45.88289" lon="-0.91012">
        <ele>13</ele>
        <time>2011-06-25T19:46:02Z</time>
      </trkpt>
      <trkpt lat="45.88298" lon="-0.91012">
        <ele>13</ele>
        <time>2011-06-25T19:46:10Z</time>
      </trkpt>
      <trkpt lat="45.88307" lon="-0.91013">
        <ele>13</ele>
        <time>2011-06-25T19:46:16Z</time>
      </trkpt>
      <trkpt lat="45.88317" lon="-0.91015">
        <ele>13</ele>
        <time>2011-06-25T19:46:24Z</time>
      </trkpt>
      <trkpt lat="45.88328" lon="-0.91012">
        <ele>12</ele>
        <time>2011-06-25T19:46:37Z</time>
      </trkpt>
      <trkpt lat="45.88339" lon="-0.91013">
        <ele>11</ele>
        <time>2011-06-25T19:46:46Z</time>
      </trkpt>
      <trkpt lat="45.88349" lon="-0.91013">
        <ele>11</ele>
        <time>2011-06-25T19:46:52Z</time>
      </trkpt>
      <trkpt lat="45.88358" lon="-0.91013">
        <ele>10</ele>
        <time>2011-06-25T19:47:05Z</time>
      </trkpt>
      <trkpt lat="45.88368" lon="-0.91012">
        <ele>10</ele>
        <time>2011-06-25T19:47:13Z</time>
      </trkpt>
      <trkpt lat="45.88379" lon="-0.91015">
        <ele>10</ele>
        <time>2011-06-25T19:47:22Z</time>
      </trkpt>
      <trkpt lat="45.88379" lon="-0.91015">
        <ele>10</ele>
        <time>2011-06-25T19:47:22Z</time>
      </trkpt>
      <trkpt lat="45.88379" lon="-0.91015">
        <ele>10</ele>
        <time>2011-06-25T19:47:23Z</time>
      </trkpt>
      <trkpt lat="45.88389" lon="-0.91015">
        <ele>9</ele>
        <time>2011-06-25T19:47:31Z</time>
      </trkpt>
      <trkpt lat="45.88399" lon="-0.91015">
        <ele>9</ele>
        <time>2011-06-25T19:47:40Z</time>
      </trkpt>
      <trkpt lat="45.88409" lon="-0.91015">
        <ele>9</ele>
        <time>2011-06-25T19:47:47Z</time>
      </trkpt>
      <trkpt lat="45.88418" lon="-0.91015">
        <ele>8</ele>
        <time>2011-06-25T19:47:54Z</time>
      </trkpt>
      <trkpt lat="45.88427" lon="-0.91015">
        <ele>7</ele>
        <time>2011-06-25T19:48:05Z</time>
      </trkpt>
      <trkpt lat="45.88436" lon="-0.91018">
        <ele>7</ele>
        <time>2011-06-25T19:48:13Z</time>
      </trkpt>
      <trkpt lat="45.88445" lon="-0.91018">
        <ele>7</ele>
        <time>2011-06-25T19:48:23Z</time>
      </trkpt>
      <trkpt lat="45.8846" lon="-0.91019">
        <ele>6</ele>
        <time>2011-06-25T19:48:38Z</time>
      </trkpt>
      <trkpt lat="45.8847" lon="-0.91014">
        <ele>6</ele>
        <time>2011-06-25T19:48:45Z</time>
      </trkpt>
      <trkpt lat="45.88481" lon="-0.91009">
        <ele>6</ele>
        <time>2011-06-25T19:48:55Z</time>
      </trkpt>
      <trkpt lat="45.88489" lon="-0.90999">
        <ele>7</ele>
        <time>2011-06-25T19:49:05Z</time>
      </trkpt>
      <trkpt lat="45.88497" lon="-0.90992">
        <ele>7</ele>
        <time>2011-06-25T19:49:12Z</time>
      </trkpt>
      <trkpt lat="45.88508" lon="-0.90993">
        <ele>6</ele>
        <time>2011-06-25T19:49:18Z</time>
      </trkpt>
      <trkpt lat="45.88518" lon="-0.90991">
        <ele>6</ele>
        <time>2011-06-25T19:49:29Z</time>
      </trkpt>
      <trkpt lat="45.88527" lon="-0.90991">
        <ele>6</ele>
        <time>2011-06-25T19:49:36Z</time>
      </trkpt>
      <trkpt lat="45.88537" lon="-0.90993">
        <ele>6</ele>
        <time>2011-06-25T19:49:50Z</time>
      </trkpt>
      <trkpt lat="45.8855" lon="-0.90996">
        <ele>6</ele>
        <time>2011-06-25T19:50:03Z</time>
      </trkpt>
      <trkpt lat="45.88561" lon="-0.90993">
        <ele>6</ele>
        <time>2011-06-25T19:50:11Z</time>
      </trkpt>
      <trkpt lat="45.88571" lon="-0.90993">
        <ele>6</ele>
        <time>2011-06-25T19:50:20Z</time>
      </trkpt>
      <trkpt lat="45.88571" lon="-0.90993">
        <ele>6</ele>
        <time>2011-06-25T19:50:20Z</time>
      </trkpt>
      <trkpt lat="45.88571" lon="-0.90993">
        <ele>6</ele>
        <time>2011-06-25T19:50:21Z</time>
      </trkpt>
      <trkpt lat="45.88581" lon="-0.90998">
        <ele>5</ele>
        <time>2011-06-25T19:50:37Z</time>
      </trkpt>
      <trkpt lat="45.88599" lon="-0.90994">
        <ele>7</ele>
        <time>2011-06-25T19:50:54Z</time>
      </trkpt>
      <trkpt lat="45.88608" lon="-0.90994">
        <ele>8</ele>
        <time>2011-06-25T19:50:59Z</time>
      </trkpt>
      <trkpt lat="45.88619" lon="-0.90994">
        <ele>9</ele>
        <time>2011-06-25T19:51:11Z</time>
      </trkpt>
      <trkpt lat="45.88628" lon="-0.90996">
        <ele>9</ele>
        <time>2011-06-25T19:51:21Z</time>
      </trkpt>
      <trkpt lat="45.88639" lon="-0.90996">
        <ele>10</ele>
        <time>2011-06-25T19:51:45Z</time>
      </trkpt>
      <trkpt lat="45.88651" lon="-0.90994">
        <ele>10</ele>
        <time>2011-06-25T19:51:51Z</time>
      </trkpt>
      <trkpt lat="45.88661" lon="-0.90994">
        <ele>11</ele>
        <time>2011-06-25T19:51:55Z</time>
      </trkpt>
      <trkpt lat="45.8867" lon="-0.90993">
        <ele>11</ele>
        <time>2011-06-25T19:52:01Z</time>
      </trkpt>
      <trkpt lat="45.88683" lon="-0.90988">
        <ele>12</ele>
        <time>2011-06-25T19:52:12Z</time>
      </trkpt>
      <trkpt lat="45.88693" lon="-0.90988">
        <ele>12</ele>
        <time>2011-06-25T19:52:39Z</time>
      </trkpt>
      <trkpt lat="45.88711" lon="-0.90991">
        <ele>12</ele>
        <time>2011-06-25T19:52:47Z</time>
      </trkpt>
      <trkpt lat="45.88723" lon="-0.90993">
        <ele>12</ele>
        <time>2011-06-25T19:52:55Z</time>
      </trkpt>
      <trkpt lat="45.88732" lon="-0.90988">
        <ele>13</ele>
        <time>2011-06-25T19:53:30Z</time>
      </trkpt>
      <trkpt lat="45.88742" lon="-0.90986">
        <ele>13</ele>
        <time>2011-06-25T19:53:39Z</time>
      </trkpt>
      <trkpt lat="45.88753" lon="-0.90979">
        <ele>13</ele>
        <time>2011-06-25T19:53:46Z</time>
      </trkpt>
      <trkpt lat="45.88765" lon="-0.90974">
        <ele>13</ele>
        <time>2011-06-25T19:53:49Z</time>
      </trkpt>
      <trkpt lat="45.8878" lon="-0.90966">
        <ele>13</ele>
        <time>2011-06-25T19:53:57Z</time>
      </trkpt>
      <trkpt lat="45.88787" lon="-0.90954">
        <ele>13</ele>
        <time>2011-06-25T19:54:06Z</time>
      </trkpt>
      <trkpt lat="45.88796" lon="-0.90948">
        <ele>13</ele>
        <time>2011-06-25T19:54:16Z</time>
      </trkpt>
      <trkpt lat="45.88814" lon="-0.9092">
        <ele>13</ele>
        <time>2011-06-25T19:54:33Z</time>
      </trkpt>
      <trkpt lat="45.88824" lon="-0.90911">
        <ele>13</ele>
        <time>2011-06-25T19:54:38Z</time>
      </trkpt>
      <trkpt lat="45.8882" lon="-0.90893">
        <ele>13</ele>
        <time>2011-06-25T19:54:50Z</time>
      </trkpt>
      <trkpt lat="45.88812" lon="-0.90882">
        <ele>13</ele>
        <time>2011-06-25T19:54:59Z</time>
      </trkpt>
      <trkpt lat="45.88808" lon="-0.90869">
        <ele>13</ele>
        <time>2011-06-25T19:55:09Z</time>
      </trkpt>
      <trkpt lat="45.88801" lon="-0.90861">
        <ele>13</ele>
        <time>2011-06-25T19:55:16Z</time>
      </trkpt>
      <trkpt lat="45.88795" lon="-0.90851">
        <ele>13</ele>
        <time>2011-06-25T19:55:24Z</time>
      </trkpt>
      <trkpt lat="45.88789" lon="-0.9084">
        <ele>13</ele>
        <time>2011-06-25T19:55:32Z</time>
      </trkpt>
      <trkpt lat="45.8878" lon="-0.90831">
        <ele>12</ele>
        <time>2011-06-25T19:55:41Z</time>
      </trkpt>
      <trkpt lat="45.88775" lon="-0.90821">
        <ele>12</ele>
        <time>2011-06-25T19:55:48Z</time>
      </trkpt>
      <trkpt lat="45.88767" lon="-0.90814">
        <ele>12</ele>
        <time>2011-06-25T19:55:57Z</time>
      </trkpt>
      <trkpt lat="45.88759" lon="-0.90807">
        <ele>12</ele>
        <time>2011-06-25T19:56:03Z</time>
      </trkpt>
      <trkpt lat="45.88754" lon="-0.90794">
        <ele>12</ele>
        <time>2011-06-25T19:56:13Z</time>
      </trkpt>
      <trkpt lat="45.88746" lon="-0.90786">
        <ele>12</ele>
        <time>2011-06-25T19:56:20Z</time>
      </trkpt>
      <trkpt lat="45.88738" lon="-0.90778">
        <ele>12</ele>
        <time>2011-06-25T19:56:30Z</time>
      </trkpt>
      <trkpt lat="45.88733" lon="-0.90766">
        <ele>12</ele>
        <time>2011-06-25T19:56:39Z</time>
      </trkpt>
      <trkpt lat="45.88727" lon="-0.90756">
        <ele>12</ele>
        <time>2011-06-25T19:56:49Z</time>
      </trkpt>
      <trkpt lat="45.88713" lon="-0.9074">
        <ele>12</ele>
        <time>2011-06-25T19:57:04Z</time>
      </trkpt>
      <trkpt lat="45.88706" lon="-0.9073">
        <ele>12</ele>
        <time>2011-06-25T19:57:11Z</time>
      </trkpt>
      <trkpt lat="45.88696" lon="-0.9072">
        <ele>12</ele>
        <time>2011-06-25T19:57:21Z</time>
      </trkpt>
      <trkpt lat="45.88689" lon="-0.90711">
        <ele>12</ele>
        <time>2011-06-25T19:57:30Z</time>
      </trkpt>
      <trkpt lat="45.88688" lon="-0.90696">
        <ele>12</ele>
        <time>2011-06-25T19:57:40Z</time>
      </trkpt>
      <trkpt lat="45.88682" lon="-0.90683">
        <ele>12</ele>
        <time>2011-06-25T19:57:44Z</time>
      </trkpt>
      <trkpt lat="45.88673" lon="-0.90681">
        <ele>12</ele>
        <time>2011-06-25T19:57:55Z</time>
      </trkpt>
      <trkpt lat="45.88665" lon="-0.90673">
        <ele>12</ele>
        <time>2011-06-25T19:58:03Z</time>
      </trkpt>
      <trkpt lat="45.88661" lon="-0.90661">
        <ele>12</ele>
        <time>2011-06-25T19:58:14Z</time>
      </trkpt>
      <trkpt lat="45.88653" lon="-0.90653">
        <ele>12</ele>
        <time>2011-06-25T19:58:21Z</time>
      </trkpt>
      <trkpt lat="45.8864" lon="-0.90647">
        <ele>12</ele>
        <time>2011-06-25T19:58:29Z</time>
      </trkpt>
      <trkpt lat="45.88633" lon="-0.90636">
        <ele>12</ele>
        <time>2011-06-25T19:58:37Z</time>
      </trkpt>
      <trkpt lat="45.88626" lon="-0.90626">
        <ele>12</ele>
        <time>2011-06-25T19:58:46Z</time>
      </trkpt>
      <trkpt lat="45.88617" lon="-0.9061">
        <ele>12</ele>
        <time>2011-06-25T19:59:03Z</time>
      </trkpt>
      <trkpt lat="45.8861" lon="-0.90597">
        <ele>12</ele>
        <time>2011-06-25T19:59:13Z</time>
      </trkpt>
      <trkpt lat="45.88606" lon="-0.90585">
        <ele>12</ele>
        <time>2011-06-25T19:59:24Z</time>
      </trkpt>
      <trkpt lat="45.886" lon="-0.90569">
        <ele>12</ele>
        <time>2011-06-25T19:59:37Z</time>
      </trkpt>
      <trkpt lat="45.88592" lon="-0.90563">
        <ele>12</ele>
        <time>2011-06-25T19:59:43Z</time>
      </trkpt>
      <trkpt lat="45.88584" lon="-0.90549">
        <ele>12</ele>
        <time>2011-06-25T19:59:54Z</time>
      </trkpt>
      <trkpt lat="45.88579" lon="-0.90536">
        <ele>11</ele>
        <time>2011-06-25T20:00:04Z</time>
      </trkpt>
      <trkpt lat="45.8857" lon="-0.9053">
        <ele>11</ele>
        <time>2011-06-25T20:00:12Z</time>
      </trkpt>
      <trkpt lat="45.8856" lon="-0.9051">
        <ele>11</ele>
        <time>2011-06-25T20:00:28Z</time>
      </trkpt>
      <trkpt lat="45.88548" lon="-0.90496">
        <ele>11</ele>
        <time>2011-06-25T20:00:45Z</time>
      </trkpt>
      <trkpt lat="45.8854" lon="-0.90487">
        <ele>12</ele>
        <time>2011-06-25T20:00:56Z</time>
      </trkpt>
      <trkpt lat="45.88532" lon="-0.90476">
        <ele>12</ele>
        <time>2011-06-25T20:01:05Z</time>
      </trkpt>
      <trkpt lat="45.88525" lon="-0.90466">
        <ele>12</ele>
        <time>2011-06-25T20:01:15Z</time>
      </trkpt>
      <trkpt lat="45.88519" lon="-0.90456">
        <ele>11</ele>
        <time>2011-06-25T20:01:23Z</time>
      </trkpt>
      <trkpt lat="45.8851" lon="-0.90449">
        <ele>11</ele>
        <time>2011-06-25T20:01:32Z</time>
      </trkpt>
      <trkpt lat="45.88496" lon="-0.90445">
        <ele>11</ele>
        <time>2011-06-25T20:01:47Z</time>
      </trkpt>
      <trkpt lat="45.88487" lon="-0.90439">
        <ele>11</ele>
        <time>2011-06-25T20:01:56Z</time>
      </trkpt>
      <trkpt lat="45.88478" lon="-0.90434">
        <ele>11</ele>
        <time>2011-06-25T20:02:06Z</time>
      </trkpt>
      <trkpt lat="45.88461" lon="-0.90429">
        <ele>11</ele>
        <time>2011-06-25T20:02:21Z</time>
      </trkpt>
      <trkpt lat="45.88452" lon="-0.9043">
        <ele>11</ele>
        <time>2011-06-25T20:02:27Z</time>
      </trkpt>
      <trkpt lat="45.88443" lon="-0.90435">
        <ele>11</ele>
        <time>2011-06-25T20:02:38Z</time>
      </trkpt>
      <trkpt lat="45.88434" lon="-0.90439">
        <ele>10</ele>
        <time>2011-06-25T20:02:46Z</time>
      </trkpt>
      <trkpt lat="45.88424" lon="-0.90443">
        <ele>10</ele>
        <time>2011-06-25T20:02:55Z</time>
      </trkpt>
      <trkpt lat="45.88415" lon="-0.9044">
        <ele>10</ele>
        <time>2011-06-25T20:03:00Z</time>
      </trkpt>
      <trkpt lat="45.88405" lon="-0.9044">
        <ele>10</ele>
        <time>2011-06-25T20:03:12Z</time>
      </trkpt>
      <trkpt lat="45.88396" lon="-0.90446">
        <ele>10</ele>
        <time>2011-06-25T20:03:18Z</time>
      </trkpt>
      <trkpt lat="45.88387" lon="-0.90443">
        <ele>10</ele>
        <time>2011-06-25T20:03:31Z</time>
      </trkpt>
      <trkpt lat="45.88377" lon="-0.9044">
        <ele>9</ele>
        <time>2011-06-25T20:03:38Z</time>
      </trkpt>
      <trkpt lat="45.88367" lon="-0.90443">
        <ele>9</ele>
        <time>2011-06-25T20:03:48Z</time>
      </trkpt>
      <trkpt lat="45.88358" lon="-0.90439">
        <ele>9</ele>
        <time>2011-06-25T20:03:56Z</time>
      </trkpt>
      <trkpt lat="45.88349" lon="-0.90437">
        <ele>9</ele>
        <time>2011-06-25T20:04:03Z</time>
      </trkpt>
      <trkpt lat="45.88341" lon="-0.90432">
        <ele>9</ele>
        <time>2011-06-25T20:04:12Z</time>
      </trkpt>
      <trkpt lat="45.88338" lon="-0.90418">
        <ele>8</ele>
        <time>2011-06-25T20:04:21Z</time>
      </trkpt>
      <trkpt lat="45.8834" lon="-0.90396">
        <ele>8</ele>
        <time>2011-06-25T20:04:37Z</time>
      </trkpt>
      <trkpt lat="45.88338" lon="-0.90373">
        <ele>8</ele>
        <time>2011-06-25T20:04:54Z</time>
      </trkpt>
      <trkpt lat="45.8834" lon="-0.90359">
        <ele>8</ele>
        <time>2011-06-25T20:05:04Z</time>
      </trkpt>
      <trkpt lat="45.88341" lon="-0.90346">
        <ele>8</ele>
        <time>2011-06-25T20:05:11Z</time>
      </trkpt>
      <trkpt lat="45.8834" lon="-0.90332">
        <ele>7</ele>
        <time>2011-06-25T20:05:20Z</time>
      </trkpt>
      <trkpt lat="45.88341" lon="-0.90319">
        <ele>8</ele>
        <time>2011-06-25T20:05:28Z</time>
      </trkpt>
      <trkpt lat="45.88343" lon="-0.90306">
        <ele>8</ele>
        <time>2011-06-25T20:05:37Z</time>
      </trkpt>
      <trkpt lat="45.88344" lon="-0.90293">
        <ele>8</ele>
        <time>2011-06-25T20:05:46Z</time>
      </trkpt>
      <trkpt lat="45.88347" lon="-0.90279">
        <ele>8</ele>
        <time>2011-06-25T20:05:53Z</time>
      </trkpt>
      <trkpt lat="45.88347" lon="-0.90265">
        <ele>8</ele>
        <time>2011-06-25T20:06:01Z</time>
      </trkpt>
      <trkpt lat="45.88349" lon="-0.90245">
        <ele>8</ele>
        <time>2011-06-25T20:06:13Z</time>
      </trkpt>
      <trkpt lat="45.88353" lon="-0.90232">
        <ele>9</ele>
        <time>2011-06-25T20:06:22Z</time>
      </trkpt>
      <trkpt lat="45.88357" lon="-0.9022">
        <ele>9</ele>
        <time>2011-06-25T20:06:30Z</time>
      </trkpt>
      <trkpt lat="45.88356" lon="-0.90205">
        <ele>9</ele>
        <time>2011-06-25T20:06:40Z</time>
      </trkpt>
      <trkpt lat="45.88357" lon="-0.90192">
        <ele>9</ele>
        <time>2011-06-25T20:06:48Z</time>
      </trkpt>
      <trkpt lat="45.88357" lon="-0.90168">
        <ele>9</ele>
        <time>2011-06-25T20:07:03Z</time>
      </trkpt>
      <trkpt lat="45.88358" lon="-0.90154">
        <ele>9</ele>
        <time>2011-06-25T20:07:11Z</time>
      </trkpt>
      <trkpt lat="45.88362" lon="-0.90138">
        <ele>9</ele>
        <time>2011-06-25T20:07:20Z</time>
      </trkpt>
      <trkpt lat="45.88364" lon="-0.90125">
        <ele>9</ele>
        <time>2011-06-25T20:07:30Z</time>
      </trkpt>
      <trkpt lat="45.88367" lon="-0.90113">
        <ele>10</ele>
        <time>2011-06-25T20:07:37Z</time>
      </trkpt>
      <trkpt lat="45.88365" lon="-0.901">
        <ele>10</ele>
        <time>2011-06-25T20:07:44Z</time>
      </trkpt>
      <trkpt lat="45.88371" lon="-0.90083">
        <ele>10</ele>
        <time>2011-06-25T20:07:54Z</time>
      </trkpt>
      <trkpt lat="45.8837" lon="-0.9007">
        <ele>10</ele>
        <time>2011-06-25T20:08:01Z</time>
      </trkpt>
      <trkpt lat="45.88372" lon="-0.90055">
        <ele>10</ele>
        <time>2011-06-25T20:08:11Z</time>
      </trkpt>
      <trkpt lat="45.88376" lon="-0.90042">
        <ele>10</ele>
        <time>2011-06-25T20:08:19Z</time>
      </trkpt>
      <trkpt lat="45.88377" lon="-0.90027">
        <ele>10</ele>
        <time>2011-06-25T20:08:28Z</time>
      </trkpt>
      <trkpt lat="45.88379" lon="-0.90014">
        <ele>10</ele>
        <time>2011-06-25T20:08:36Z</time>
      </trkpt>
      <trkpt lat="45.88384" lon="-0.9">
        <ele>10</ele>
        <time>2011-06-25T20:08:45Z</time>
      </trkpt>
      <trkpt lat="45.88383" lon="-0.89985">
        <ele>10</ele>
        <time>2011-06-25T20:08:55Z</time>
      </trkpt>
      <trkpt lat="45.88384" lon="-0.89971">
        <ele>10</ele>
        <time>2011-06-25T20:09:04Z</time>
      </trkpt>
      <trkpt lat="45.88386" lon="-0.89955">
        <ele>10</ele>
        <time>2011-06-25T20:09:13Z</time>
      </trkpt>
      <trkpt lat="45.88388" lon="-0.89942">
        <ele>10</ele>
        <time>2011-06-25T20:09:21Z</time>
      </trkpt>
      <trkpt lat="45.88389" lon="-0.89927">
        <ele>10</ele>
        <time>2011-06-25T20:09:30Z</time>
      </trkpt>
      <trkpt lat="45.88391" lon="-0.89913">
        <ele>11</ele>
        <time>2011-06-25T20:09:39Z</time>
      </trkpt>
      <trkpt lat="45.88395" lon="-0.89901">
        <ele>11</ele>
        <time>2011-06-25T20:09:47Z</time>
      </trkpt>
      <trkpt lat="45.884" lon="-0.89888">
        <ele>11</ele>
        <time>2011-06-25T20:09:55Z</time>
      </trkpt>
      <trkpt lat="45.884" lon="-0.89874">
        <ele>11</ele>
        <time>2011-06-25T20:10:04Z</time>
      </trkpt>
      <trkpt lat="45.88403" lon="-0.89861">
        <ele>12</ele>
        <time>2011-06-25T20:10:12Z</time>
      </trkpt>
      <trkpt lat="45.88409" lon="-0.89846">
        <ele>12</ele>
        <time>2011-06-25T20:10:21Z</time>
      </trkpt>
      <trkpt lat="45.8841" lon="-0.89832">
        <ele>12</ele>
        <time>2011-06-25T20:10:30Z</time>
      </trkpt>
      <trkpt lat="45.88414" lon="-0.89818">
        <ele>12</ele>
        <time>2011-06-25T20:10:39Z</time>
      </trkpt>
      <trkpt lat="45.88414" lon="-0.89805">
        <ele>13</ele>
        <time>2011-06-25T20:10:47Z</time>
      </trkpt>
      <trkpt lat="45.88416" lon="-0.89791">
        <ele>13</ele>
        <time>2011-06-25T20:10:56Z</time>
      </trkpt>
      <trkpt lat="45.88419" lon="-0.89777">
        <ele>12</ele>
        <time>2011-06-25T20:11:05Z</time>
      </trkpt>
      <trkpt lat="45.88416" lon="-0.89764">
        <ele>13</ele>
        <time>2011-06-25T20:11:13Z</time>
      </trkpt>
      <trkpt lat="45.88415" lon="-0.8975">
        <ele>13</ele>
        <time>2011-06-25T20:11:22Z</time>
      </trkpt>
      <trkpt lat="45.88417" lon="-0.89735">
        <ele>13</ele>
        <time>2011-06-25T20:11:29Z</time>
      </trkpt>
      <trkpt lat="45.8841" lon="-0.89725">
        <ele>14</ele>
        <time>2011-06-25T20:11:38Z</time>
      </trkpt>
      <trkpt lat="45.88411" lon="-0.89712">
        <ele>14</ele>
        <time>2011-06-25T20:11:46Z</time>
      </trkpt>
      <trkpt lat="45.88408" lon="-0.89698">
        <ele>14</ele>
        <time>2011-06-25T20:11:55Z</time>
      </trkpt>
      <trkpt lat="45.88407" lon="-0.89684">
        <ele>15</ele>
        <time>2011-06-25T20:12:05Z</time>
      </trkpt>
      <trkpt lat="45.88402" lon="-0.89672">
        <ele>15</ele>
        <time>2011-06-25T20:12:11Z</time>
      </trkpt>
      <trkpt lat="45.88402" lon="-0.89658">
        <ele>15</ele>
        <time>2011-06-25T20:12:20Z</time>
      </trkpt>
      <trkpt lat="45.88398" lon="-0.89645">
        <ele>15</ele>
        <time>2011-06-25T20:12:28Z</time>
      </trkpt>
      <trkpt lat="45.88393" lon="-0.89632">
        <ele>15</ele>
        <time>2011-06-25T20:12:37Z</time>
      </trkpt>
      <trkpt lat="45.88384" lon="-0.89631">
        <ele>15</ele>
        <time>2011-06-25T20:12:43Z</time>
      </trkpt>
      <trkpt lat="45.88373" lon="-0.89631">
        <ele>15</ele>
        <time>2011-06-25T20:12:57Z</time>
      </trkpt>
      <trkpt lat="45.88357" lon="-0.89632">
        <ele>15</ele>
        <time>2011-06-25T20:13:11Z</time>
      </trkpt>
      <trkpt lat="45.88347" lon="-0.8963">
        <ele>15</ele>
        <time>2011-06-25T20:13:21Z</time>
      </trkpt>
      <trkpt lat="45.88338" lon="-0.89634">
        <ele>15</ele>
        <time>2011-06-25T20:13:32Z</time>
      </trkpt>
      <trkpt lat="45.88322" lon="-0.89637">
        <ele>15</ele>
        <time>2011-06-25T20:13:45Z</time>
      </trkpt>
      <trkpt lat="45.88313" lon="-0.89639">
        <ele>15</ele>
        <time>2011-06-25T20:13:51Z</time>
      </trkpt>
      <trkpt lat="45.88306" lon="-0.8963">
        <ele>15</ele>
        <time>2011-06-25T20:14:03Z</time>
      </trkpt>
      <trkpt lat="45.88298" lon="-0.89623">
        <ele>15</ele>
        <time>2011-06-25T20:14:11Z</time>
      </trkpt>
    </trkseg>
  </trk>
</gpx>